BAW178 KJFK-EGLL
Flight info
| Callsign | BAW178 |
|---|---|
| Flight time | 6h 21m |
| Altitude | 35000 |
| Route | HAPIE DCT YAHOO DCT WHALE N59E NANSO/M082F350 N59E RAFIN/M082F370 DCT 45N050W 47N040W 49N030W 5030N02000W DCT DINIM DCT ELSOX/N0469F370 DCT EVRIN DCT INFEC DCT JETZI DCT AMFUL DCT ORZEB/N0403F230 P2 SIRIC |
| Aircraft | B77W/H-SDE1E2E3FGHIJ2J3J4J5M1RWXY/LB1D1 |
Departure
| Time | 2026-05-05 12:06 |
|---|---|
| Airport | John F. Kennedy International Airport (KJFK) |
Arrival
| Time | 2026-05-05 18:27 |
|---|---|
| Airport | London Heathrow Airport (EGLL) |
| Time | Latitude | Longitude | Altitude | Speed | Heading |
|---|---|---|---|---|---|
| 2026-05-05 11:13 | 40.64857 | -73.78878 | 20 ft | 0 kts | 245° |
| 2026-05-05 11:51 | 40.64862 | -73.78862 | 25 ft | 4 kts | 245° |
| 2026-05-05 11:51 | 40.64872 | -73.78831 | 25 ft | 3 kts | 256° |
| 2026-05-05 11:51 | 40.64872 | -73.78807 | 25 ft | 3 kts | 290° |
| 2026-05-05 11:52 | 40.64870 | -73.78798 | 25 ft | 3 kts | 293° |
| 2026-05-05 11:52 | 40.64881 | -73.78817 | 20 ft | 2 kts | 320° |
| 2026-05-05 11:52 | 40.64895 | -73.78827 | 22 ft | 1 kts | 337° |
| 2026-05-05 11:52 | 40.64904 | -73.78832 | 21 ft | 1 kts | 341° |
| 2026-05-05 11:53 | 40.64912 | -73.78835 | 22 ft | 0 kts | 343° |
| 2026-05-05 11:56 | 40.64917 | -73.78837 | 21 ft | 4 kts | 343° |
| 2026-05-05 11:56 | 40.64968 | -73.78858 | 22 ft | 9 kts | 341° |
| 2026-05-05 11:56 | 40.65021 | -73.78898 | 20 ft | 9 kts | 329° |
| 2026-05-05 11:57 | 40.65080 | -73.78912 | 20 ft | 9 kts | 359° |
| 2026-05-05 11:57 | 40.65129 | -73.78876 | 21 ft | 9 kts | 69° |
| 2026-05-05 11:57 | 40.65143 | -73.78795 | 20 ft | 9 kts | 77° |
| 2026-05-05 11:57 | 40.65164 | -73.78715 | 20 ft | 11 kts | 64° |
| 2026-05-05 11:58 | 40.65204 | -73.78618 | 28 ft | 11 kts | 61° |
| 2026-05-05 11:58 | 40.65248 | -73.78513 | 21 ft | 15 kts | 62° |
| 2026-05-05 11:58 | 40.65262 | -73.78385 | 22 ft | 15 kts | 105° |
| 2026-05-05 11:58 | 40.65215 | -73.78265 | 21 ft | 15 kts | 120° |
| 2026-05-05 11:59 | 40.65162 | -73.78148 | 21 ft | 15 kts | 121° |
| 2026-05-05 11:59 | 40.65109 | -73.78032 | 23 ft | 15 kts | 121° |
| 2026-05-05 11:59 | 40.65056 | -73.77916 | 21 ft | 15 kts | 120° |
| 2026-05-05 11:59 | 40.65005 | -73.77801 | 21 ft | 15 kts | 120° |
| 2026-05-05 12:00 | 40.64952 | -73.77685 | 21 ft | 15 kts | 121° |
| 2026-05-05 12:00 | 40.64899 | -73.77569 | 20 ft | 15 kts | 121° |
| 2026-05-05 12:00 | 40.64837 | -73.77434 | 21 ft | 19 kts | 121° |
| 2026-05-05 12:00 | 40.64777 | -73.77299 | 21 ft | 14 kts | 121° |
| 2026-05-05 12:01 | 40.64761 | -73.77201 | 21 ft | 11 kts | 71° |
| 2026-05-05 12:01 | 40.64805 | -73.77114 | 25 ft | 11 kts | 52° |
| 2026-05-05 12:01 | 40.64853 | -73.77030 | 28 ft | 11 kts | 54° |
| 2026-05-05 12:01 | 40.64898 | -73.76944 | 28 ft | 12 kts | 55° |
| 2026-05-05 12:02 | 40.64950 | -73.76845 | 21 ft | 14 kts | 55° |
| 2026-05-05 12:02 | 40.64982 | -73.76737 | 21 ft | 13 kts | 100° |
| 2026-05-05 12:02 | 40.64973 | -73.76636 | 21 ft | 11 kts | 61° |
| 2026-05-05 12:02 | 40.65034 | -73.76580 | 21 ft | 11 kts | 30° |
| 2026-05-05 12:03 | 40.65094 | -73.76524 | 23 ft | 11 kts | 54° |
| 2026-05-05 12:03 | 40.65094 | -73.76468 | 20 ft | 0 kts | 116° |
| 2026-05-05 12:04 | 40.65092 | -73.76462 | 23 ft | 3 kts | 116° |
| 2026-05-05 12:04 | 40.65060 | -73.76385 | 20 ft | 11 kts | 121° |
| 2026-05-05 12:04 | 40.65004 | -73.76367 | 20 ft | 8 kts | 202° |
| 2026-05-05 12:04 | 40.64991 | -73.76376 | 20 ft | 0 kts | 208° |
| 2026-05-05 12:05 | 40.64844 | -73.76493 | 20 ft | 65 kts | 211° |
| 2026-05-05 12:05 | 40.64208 | -73.76990 | 25 ft | 145 kts | 210° |
| 2026-05-05 12:05 | 40.63167 | -73.77797 | 272 ft | 185 kts | 209° |
| 2026-05-05 12:06 | 40.62028 | -73.78604 | 1159 ft | 184 kts | 210° |
| 2026-05-05 12:06 | 40.60973 | -73.79422 | 2150 ft | 169 kts | 220° |
| 2026-05-05 12:06 | 40.59983 | -73.80354 | 2559 ft | 190 kts | 220° |
| 2026-05-05 12:06 | 40.58835 | -73.81458 | 2834 ft | 216 kts | 220° |
| 2026-05-05 12:07 | 40.57594 | -73.82670 | 3540 ft | 227 kts | 220° |
| 2026-05-05 12:07 | 40.56325 | -73.83925 | 4214 ft | 237 kts | 220° |
| 2026-05-05 12:07 | 40.54971 | -73.85226 | 4880 ft | 245 kts | 212° |
| 2026-05-05 12:07 | 40.53282 | -73.85829 | 5592 ft | 262 kts | 184° |
| 2026-05-05 12:08 | 40.51478 | -73.85245 | 6433 ft | 276 kts | 156° |
| 2026-05-05 12:08 | 40.49993 | -73.83573 | 7269 ft | 289 kts | 129° |
| 2026-05-05 12:08 | 40.49090 | -73.81219 | 8065 ft | 297 kts | 111° |
| 2026-05-05 12:08 | 40.48636 | -73.78533 | 8854 ft | 303 kts | 103° |
| 2026-05-05 12:09 | 40.48311 | -73.75777 | 9692 ft | 306 kts | 102° |
| 2026-05-05 12:09 | 40.48010 | -73.72995 | 10418 ft | 312 kts | 102° |
| 2026-05-05 12:09 | 40.47691 | -73.70105 | 10685 ft | 336 kts | 102° |
| 2026-05-05 12:09 | 40.47330 | -73.66953 | 10883 ft | 362 kts | 102° |
| 2026-05-05 12:10 | 40.46938 | -73.63603 | 11390 ft | 377 kts | 102° |
| 2026-05-05 12:10 | 40.46525 | -73.60148 | 12093 ft | 387 kts | 102° |
| 2026-05-05 12:10 | 40.46097 | -73.56616 | 12961 ft | 394 kts | 102° |
| 2026-05-05 12:10 | 40.45661 | -73.53071 | 13826 ft | 400 kts | 102° |
| 2026-05-05 12:11 | 40.45210 | -73.49435 | 14631 ft | 405 kts | 102° |
| 2026-05-05 12:11 | 40.44750 | -73.45751 | 15486 ft | 409 kts | 102° |
| 2026-05-05 12:11 | 40.44285 | -73.42043 | 16371 ft | 412 kts | 102° |
| 2026-05-05 12:11 | 40.43820 | -73.38350 | 17199 ft | 417 kts | 102° |
| 2026-05-05 12:12 | 40.43343 | -73.34574 | 18022 ft | 422 kts | 102° |
| 2026-05-05 12:12 | 40.42856 | -73.30726 | 18768 ft | 427 kts | 102° |
| 2026-05-05 12:12 | 40.42371 | -73.26907 | 19535 ft | 430 kts | 102° |
| 2026-05-05 12:12 | 40.41877 | -73.23018 | 20330 ft | 432 kts | 102° |
| 2026-05-05 12:13 | 40.41378 | -73.19110 | 21115 ft | 434 kts | 102° |
| 2026-05-05 12:13 | 40.40875 | -73.15180 | 21871 ft | 437 kts | 102° |
| 2026-05-05 12:13 | 40.40376 | -73.11283 | 22607 ft | 440 kts | 102° |
| 2026-05-05 12:13 | 40.39864 | -73.07304 | 23339 ft | 443 kts | 102° |
| 2026-05-05 12:14 | 40.39364 | -73.03287 | 23994 ft | 447 kts | 99° |
| 2026-05-05 12:14 | 40.39206 | -72.99186 | 24595 ft | 452 kts | 90° |
| 2026-05-05 12:14 | 40.39498 | -72.95064 | 25212 ft | 455 kts | 82° |
| 2026-05-05 12:14 | 40.40200 | -72.91039 | 25801 ft | 459 kts | 75° |
| 2026-05-05 12:15 | 40.41112 | -72.87013 | 26371 ft | 462 kts | 74° |
| 2026-05-05 12:15 | 40.42060 | -72.82965 | 26919 ft | 465 kts | 74° |
| 2026-05-05 12:15 | 40.43018 | -72.78882 | 27457 ft | 468 kts | 74° |
| 2026-05-05 12:15 | 40.43971 | -72.74783 | 27995 ft | 471 kts | 75° |
| 2026-05-05 12:16 | 40.44910 | -72.70692 | 28504 ft | 474 kts | 75° |
| 2026-05-05 12:16 | 40.45856 | -72.66517 | 28999 ft | 477 kts | 75° |
| 2026-05-05 12:16 | 40.46799 | -72.62315 | 29504 ft | 479 kts | 75° |
| 2026-05-05 12:16 | 40.47740 | -72.58101 | 29986 ft | 482 kts | 75° |
| 2026-05-05 12:17 | 40.48685 | -72.53851 | 30384 ft | 485 kts | 75° |
| 2026-05-05 12:17 | 40.49620 | -72.49634 | 30708 ft | 488 kts | 75° |
| 2026-05-05 12:17 | 40.50583 | -72.45285 | 31060 ft | 490 kts | 75° |
| 2026-05-05 12:17 | 40.51526 | -72.41023 | 31464 ft | 491 kts | 75° |
| 2026-05-05 12:18 | 40.52479 | -72.36707 | 31916 ft | 490 kts | 75° |
| 2026-05-05 12:18 | 40.53428 | -72.32405 | 32408 ft | 489 kts | 75° |
| 2026-05-05 12:18 | 40.54377 | -72.28097 | 32832 ft | 489 kts | 75° |
| 2026-05-05 12:18 | 40.55311 | -72.23846 | 33223 ft | 489 kts | 74° |
| 2026-05-05 12:19 | 40.56255 | -72.19538 | 33599 ft | 489 kts | 74° |
| 2026-05-05 12:19 | 40.57196 | -72.15238 | 33956 ft | 490 kts | 74° |
| 2026-05-05 12:19 | 40.58142 | -72.10903 | 34235 ft | 491 kts | 74° |
| 2026-05-05 12:19 | 40.59091 | -72.06549 | 34480 ft | 493 kts | 74° |
| 2026-05-05 12:20 | 40.60023 | -72.02261 | 34695 ft | 495 kts | 74° |
| 2026-05-05 12:20 | 40.60973 | -71.97885 | 34870 ft | 498 kts | 74° |
| 2026-05-05 12:20 | 40.62881 | -71.89069 | 34971 ft | 500 kts | 74° |
| 2026-05-05 12:21 | 40.64770 | -71.80300 | 34973 ft | 494 kts | 74° |
| 2026-05-05 12:21 | 40.66634 | -71.71612 | 34990 ft | 492 kts | 74° |
| 2026-05-05 12:22 | 40.68491 | -71.62925 | 34992 ft | 492 kts | 74° |
| 2026-05-05 12:22 | 40.70330 | -71.54284 | 34996 ft | 492 kts | 74° |
| 2026-05-05 12:23 | 40.72178 | -71.45569 | 34994 ft | 493 kts | 74° |
| 2026-05-05 12:23 | 40.74022 | -71.36837 | 34996 ft | 494 kts | 74° |
| 2026-05-05 12:24 | 40.75861 | -71.28089 | 35003 ft | 495 kts | 74° |
| 2026-05-05 12:24 | 40.77688 | -71.19363 | 34999 ft | 495 kts | 75° |
| 2026-05-05 12:25 | 40.79512 | -71.10616 | 35003 ft | 496 kts | 75° |
| 2026-05-05 12:25 | 40.81336 | -71.01833 | 35008 ft | 496 kts | 75° |
| 2026-05-05 12:26 | 40.82848 | -70.94525 | 35009 ft | 496 kts | 75° |
| 2026-05-05 12:26 | 40.84661 | -70.85725 | 35011 ft | 496 kts | 75° |
| 2026-05-05 12:27 | 40.86466 | -70.76929 | 35013 ft | 495 kts | 75° |
| 2026-05-05 12:27 | 40.88267 | -70.68113 | 35014 ft | 495 kts | 75° |
| 2026-05-05 12:28 | 40.90045 | -70.59375 | 35016 ft | 495 kts | 75° |
| 2026-05-05 12:28 | 40.91830 | -70.50562 | 35014 ft | 495 kts | 75° |
| 2026-05-05 12:29 | 40.93592 | -70.41826 | 35018 ft | 494 kts | 75° |
| 2026-05-05 12:29 | 40.95360 | -70.33024 | 35025 ft | 494 kts | 75° |
| 2026-05-05 12:30 | 40.97117 | -70.24238 | 35023 ft | 494 kts | 75° |
| 2026-05-05 12:30 | 40.98874 | -70.15415 | 35023 ft | 494 kts | 75° |
| 2026-05-05 12:31 | 41.00613 | -70.06643 | 35023 ft | 494 kts | 75° |
| 2026-05-05 12:31 | 41.02357 | -69.97807 | 35025 ft | 494 kts | 75° |
| 2026-05-05 12:32 | 41.04082 | -69.89025 | 35025 ft | 494 kts | 75° |
| 2026-05-05 12:32 | 41.05806 | -69.80226 | 35023 ft | 494 kts | 75° |
| 2026-05-05 12:33 | 41.08145 | -69.71659 | 35031 ft | 493 kts | 64° |
| 2026-05-05 12:33 | 41.11444 | -69.63747 | 35038 ft | 492 kts | 59° |
| 2026-05-05 12:34 | 41.14873 | -69.55910 | 35029 ft | 492 kts | 59° |
| 2026-05-05 12:34 | 41.18295 | -69.48000 | 35035 ft | 493 kts | 59° |
| 2026-05-05 12:35 | 41.21686 | -69.40060 | 35038 ft | 493 kts | 59° |
| 2026-05-05 12:35 | 41.25042 | -69.32155 | 35040 ft | 493 kts | 59° |
| 2026-05-05 12:36 | 41.28410 | -69.24202 | 35043 ft | 493 kts | 59° |
| 2026-05-05 12:36 | 41.31759 | -69.16278 | 35043 ft | 493 kts | 59° |
| 2026-05-05 12:37 | 41.35122 | -69.08302 | 35043 ft | 493 kts | 59° |
| 2026-05-05 12:37 | 41.38460 | -69.00364 | 35043 ft | 493 kts | 59° |
| 2026-05-05 12:38 | 41.41814 | -68.92365 | 35042 ft | 493 kts | 59° |
| 2026-05-05 12:38 | 41.45141 | -68.84409 | 35050 ft | 493 kts | 59° |
| 2026-05-05 12:39 | 41.48480 | -68.76405 | 35044 ft | 493 kts | 59° |
| 2026-05-05 12:39 | 41.51788 | -68.68453 | 35048 ft | 493 kts | 59° |
| 2026-05-05 12:40 | 41.55117 | -68.60429 | 35051 ft | 493 kts | 59° |
| 2026-05-05 12:40 | 41.58420 | -68.52446 | 35052 ft | 492 kts | 59° |
| 2026-05-05 12:41 | 41.61729 | -68.44426 | 35047 ft | 492 kts | 59° |
| 2026-05-05 12:41 | 41.65017 | -68.36437 | 35052 ft | 492 kts | 59° |
| 2026-05-05 12:42 | 41.68320 | -68.28389 | 35055 ft | 492 kts | 59° |
| 2026-05-05 12:42 | 41.71616 | -68.20336 | 35053 ft | 492 kts | 59° |
| 2026-05-05 12:43 | 41.74889 | -68.12317 | 35057 ft | 492 kts | 59° |
| 2026-05-05 12:43 | 41.78179 | -68.04234 | 35054 ft | 492 kts | 59° |
| 2026-05-05 12:44 | 41.81437 | -67.96207 | 35057 ft | 493 kts | 59° |
| 2026-05-05 12:44 | 41.84715 | -67.88110 | 35062 ft | 493 kts | 59° |
| 2026-05-05 12:45 | 41.87967 | -67.80055 | 35059 ft | 493 kts | 59° |
| 2026-05-05 12:45 | 41.91238 | -67.71929 | 35059 ft | 493 kts | 59° |
| 2026-05-05 12:46 | 41.94497 | -67.63813 | 35056 ft | 493 kts | 59° |
| 2026-05-05 12:46 | 41.97727 | -67.55745 | 35068 ft | 493 kts | 59° |
| 2026-05-05 12:47 | 42.00977 | -67.47605 | 35068 ft | 493 kts | 59° |
| 2026-05-05 12:47 | 42.04204 | -67.39500 | 35066 ft | 493 kts | 59° |
| 2026-05-05 12:48 | 42.07456 | -67.31309 | 35060 ft | 494 kts | 59° |
| 2026-05-05 12:48 | 42.10673 | -67.23182 | 35061 ft | 494 kts | 59° |
| 2026-05-05 12:49 | 42.13907 | -67.14990 | 35069 ft | 494 kts | 59° |
| 2026-05-05 12:49 | 42.17113 | -67.06848 | 35069 ft | 494 kts | 59° |
| 2026-05-05 12:50 | 42.20231 | -66.98560 | 35067 ft | 496 kts | 65° |
| 2026-05-05 12:50 | 42.22611 | -66.89841 | 35078 ft | 497 kts | 68° |
| 2026-05-05 12:51 | 42.24890 | -66.80994 | 35071 ft | 498 kts | 68° |
| 2026-05-05 12:51 | 42.27170 | -66.72206 | 35074 ft | 498 kts | 68° |
| 2026-05-05 12:52 | 42.29476 | -66.63408 | 35075 ft | 498 kts | 68° |
| 2026-05-05 12:52 | 42.31794 | -66.54571 | 35075 ft | 498 kts | 68° |
| 2026-05-05 12:53 | 42.34106 | -66.45729 | 35075 ft | 498 kts | 68° |
| 2026-05-05 12:53 | 42.36392 | -66.36945 | 35076 ft | 498 kts | 68° |
| 2026-05-05 12:54 | 42.39840 | -66.23631 | 35080 ft | 498 kts | 68° |
| 2026-05-05 12:55 | 42.42117 | -66.14799 | 35081 ft | 498 kts | 68° |
| 2026-05-05 12:55 | 42.44396 | -66.05922 | 35084 ft | 499 kts | 68° |
| 2026-05-05 12:56 | 42.46661 | -65.97071 | 35082 ft | 499 kts | 68° |
| 2026-05-05 12:56 | 42.48930 | -65.88171 | 35086 ft | 499 kts | 68° |
| 2026-05-05 12:57 | 42.51182 | -65.79303 | 35087 ft | 499 kts | 68° |
| 2026-05-05 12:57 | 42.53443 | -65.70366 | 35091 ft | 500 kts | 68° |
| 2026-05-05 12:58 | 42.55687 | -65.61460 | 35087 ft | 500 kts | 68° |
| 2026-05-05 12:58 | 42.57925 | -65.52549 | 35091 ft | 500 kts | 68° |
| 2026-05-05 12:59 | 42.60167 | -65.43583 | 35089 ft | 500 kts | 68° |
| 2026-05-05 12:59 | 42.62402 | -65.34613 | 35091 ft | 501 kts | 68° |
| 2026-05-05 13:00 | 42.65729 | -65.21196 | 35094 ft | 501 kts | 68° |
| 2026-05-05 13:01 | 42.70150 | -65.03249 | 35097 ft | 502 kts | 68° |
| 2026-05-05 13:01 | 42.72358 | -64.94231 | 35093 ft | 502 kts | 69° |
| 2026-05-05 13:02 | 42.74547 | -64.85257 | 35095 ft | 502 kts | 69° |
| 2026-05-05 13:02 | 42.76745 | -64.76211 | 35100 ft | 502 kts | 69° |
| 2026-05-05 13:03 | 42.78923 | -64.67210 | 35097 ft | 503 kts | 69° |
| 2026-05-05 13:03 | 42.81112 | -64.58126 | 35098 ft | 503 kts | 69° |
| 2026-05-05 13:04 | 42.83277 | -64.49111 | 35101 ft | 503 kts | 69° |
| 2026-05-05 13:04 | 42.85450 | -64.40023 | 35100 ft | 503 kts | 69° |
| 2026-05-05 13:05 | 42.87614 | -64.30938 | 35099 ft | 503 kts | 69° |
| 2026-05-05 13:05 | 42.89771 | -64.21845 | 35101 ft | 503 kts | 69° |
| 2026-05-05 13:06 | 42.91907 | -64.12803 | 35101 ft | 503 kts | 69° |
| 2026-05-05 13:06 | 42.94051 | -64.03689 | 35102 ft | 503 kts | 69° |
| 2026-05-05 13:07 | 42.96176 | -63.94620 | 35105 ft | 503 kts | 69° |
| 2026-05-05 13:07 | 42.98308 | -63.85486 | 35106 ft | 503 kts | 69° |
| 2026-05-05 13:08 | 43.00415 | -63.76424 | 35103 ft | 503 kts | 69° |
| 2026-05-05 13:08 | 43.02530 | -63.67286 | 35103 ft | 503 kts | 69° |
| 2026-05-05 13:09 | 43.04626 | -63.58195 | 35108 ft | 503 kts | 69° |
| 2026-05-05 13:09 | 43.06726 | -63.49048 | 35107 ft | 503 kts | 69° |
| 2026-05-05 13:10 | 43.08805 | -63.39952 | 35107 ft | 503 kts | 69° |
| 2026-05-05 13:10 | 43.10896 | -63.30772 | 35110 ft | 503 kts | 69° |
| 2026-05-05 13:11 | 43.12963 | -63.21656 | 35111 ft | 503 kts | 69° |
| 2026-05-05 13:11 | 43.15036 | -63.12473 | 35098 ft | 504 kts | 69° |
| 2026-05-05 13:12 | 43.17087 | -63.03349 | 35112 ft | 504 kts | 69° |
| 2026-05-05 13:12 | 43.18802 | -62.95693 | 35104 ft | 504 kts | 69° |
| 2026-05-05 13:13 | 43.20857 | -62.86484 | 35112 ft | 504 kts | 69° |
| 2026-05-05 13:13 | 43.22902 | -62.77274 | 35121 ft | 505 kts | 69° |
| 2026-05-05 13:14 | 43.24929 | -62.68112 | 35118 ft | 505 kts | 69° |
| 2026-05-05 13:14 | 43.26964 | -62.58874 | 35117 ft | 505 kts | 69° |
| 2026-05-05 13:15 | 43.28996 | -62.49606 | 35112 ft | 506 kts | 70° |
| 2026-05-05 13:15 | 43.31007 | -62.40396 | 35114 ft | 506 kts | 70° |
| 2026-05-05 13:16 | 43.33025 | -62.31114 | 35115 ft | 506 kts | 70° |
| 2026-05-05 13:16 | 43.35026 | -62.21869 | 35116 ft | 506 kts | 70° |
| 2026-05-05 13:17 | 43.37028 | -62.12577 | 35121 ft | 506 kts | 70° |
| 2026-05-05 13:17 | 43.39021 | -62.03285 | 35121 ft | 506 kts | 70° |
| 2026-05-05 13:18 | 43.41009 | -61.93981 | 35118 ft | 507 kts | 70° |
| 2026-05-05 13:18 | 43.42989 | -61.84666 | 35121 ft | 507 kts | 70° |
| 2026-05-05 13:19 | 43.44949 | -61.75410 | 35119 ft | 507 kts | 70° |
| 2026-05-05 13:19 | 43.46918 | -61.66066 | 35123 ft | 507 kts | 70° |
| 2026-05-05 13:20 | 43.48877 | -61.56730 | 35120 ft | 507 kts | 70° |
| 2026-05-05 13:20 | 43.50819 | -61.47431 | 35122 ft | 507 kts | 70° |
| 2026-05-05 13:21 | 43.52768 | -61.38052 | 35125 ft | 508 kts | 70° |
| 2026-05-05 13:21 | 43.54708 | -61.28682 | 35125 ft | 508 kts | 70° |
| 2026-05-05 13:22 | 43.56629 | -61.19354 | 35125 ft | 508 kts | 70° |
| 2026-05-05 13:22 | 43.58557 | -61.09953 | 35126 ft | 508 kts | 70° |
| 2026-05-05 13:23 | 43.60463 | -61.00615 | 35125 ft | 508 kts | 70° |
| 2026-05-05 13:23 | 43.62377 | -60.91191 | 35127 ft | 508 kts | 70° |
| 2026-05-05 13:24 | 43.64272 | -60.81820 | 35125 ft | 508 kts | 70° |
| 2026-05-05 13:24 | 43.66161 | -60.72436 | 35127 ft | 509 kts | 70° |
| 2026-05-05 13:25 | 43.68054 | -60.62987 | 35124 ft | 509 kts | 71° |
| 2026-05-05 13:25 | 43.69927 | -60.53591 | 35127 ft | 509 kts | 71° |
| 2026-05-05 13:26 | 43.71806 | -60.44122 | 35127 ft | 509 kts | 71° |
| 2026-05-05 13:26 | 43.73662 | -60.34722 | 35125 ft | 509 kts | 71° |
| 2026-05-05 13:27 | 43.75527 | -60.25233 | 35128 ft | 510 kts | 71° |
| 2026-05-05 13:27 | 43.77372 | -60.15800 | 35125 ft | 510 kts | 71° |
| 2026-05-05 13:28 | 43.79222 | -60.06298 | 35128 ft | 510 kts | 71° |
| 2026-05-05 13:28 | 43.81055 | -59.96834 | 35126 ft | 511 kts | 71° |
| 2026-05-05 13:29 | 43.82888 | -59.87321 | 35131 ft | 511 kts | 71° |
| 2026-05-05 13:29 | 43.84706 | -59.77843 | 35130 ft | 511 kts | 71° |
| 2026-05-05 13:30 | 43.86526 | -59.68305 | 35131 ft | 512 kts | 71° |
| 2026-05-05 13:30 | 43.88345 | -59.58728 | 35138 ft | 512 kts | 71° |
| 2026-05-05 13:31 | 43.90141 | -59.49228 | 35135 ft | 512 kts | 71° |
| 2026-05-05 13:31 | 43.91944 | -59.39635 | 35139 ft | 513 kts | 71° |
| 2026-05-05 13:32 | 43.93730 | -59.30090 | 35137 ft | 513 kts | 72° |
| 2026-05-05 13:32 | 43.95524 | -59.20451 | 35138 ft | 514 kts | 72° |
| 2026-05-05 13:33 | 43.97295 | -59.10885 | 35141 ft | 514 kts | 72° |
| 2026-05-05 13:33 | 43.99070 | -59.01252 | 35142 ft | 515 kts | 72° |
| 2026-05-05 13:34 | 44.00845 | -58.91565 | 35145 ft | 515 kts | 72° |
| 2026-05-05 13:34 | 44.02595 | -58.81968 | 35138 ft | 516 kts | 72° |
| 2026-05-05 13:35 | 44.04356 | -58.72257 | 35138 ft | 517 kts | 72° |
| 2026-05-05 13:35 | 44.06097 | -58.62610 | 35138 ft | 517 kts | 72° |
| 2026-05-05 13:36 | 44.07846 | -58.52862 | 35143 ft | 518 kts | 73° |
| 2026-05-05 13:36 | 44.09587 | -58.43111 | 35141 ft | 519 kts | 73° |
| 2026-05-05 13:37 | 44.11312 | -58.33393 | 35140 ft | 520 kts | 73° |
| 2026-05-05 13:37 | 44.13039 | -58.23615 | 35142 ft | 521 kts | 73° |
| 2026-05-05 13:38 | 44.14763 | -58.13802 | 35140 ft | 522 kts | 73° |
| 2026-05-05 13:38 | 44.16473 | -58.04015 | 35143 ft | 522 kts | 73° |
| 2026-05-05 13:39 | 44.18186 | -57.94155 | 35144 ft | 523 kts | 73° |
| 2026-05-05 13:39 | 44.19885 | -57.84320 | 35144 ft | 524 kts | 74° |
| 2026-05-05 13:40 | 44.21587 | -57.74410 | 35140 ft | 524 kts | 74° |
| 2026-05-05 13:40 | 44.23272 | -57.64548 | 35142 ft | 525 kts | 74° |
| 2026-05-05 13:41 | 44.24961 | -57.54610 | 35143 ft | 525 kts | 74° |
| 2026-05-05 13:41 | 44.26640 | -57.44668 | 35144 ft | 526 kts | 74° |
| 2026-05-05 13:42 | 44.28299 | -57.34790 | 35143 ft | 526 kts | 75° |
| 2026-05-05 13:42 | 44.29962 | -57.24832 | 35142 ft | 526 kts | 75° |
| 2026-05-05 13:43 | 44.31611 | -57.14901 | 35146 ft | 527 kts | 75° |
| 2026-05-05 13:43 | 44.33258 | -57.04925 | 35141 ft | 527 kts | 75° |
| 2026-05-05 13:44 | 44.34900 | -56.94923 | 35145 ft | 528 kts | 75° |
| 2026-05-05 13:44 | 44.36525 | -56.84960 | 35144 ft | 528 kts | 75° |
| 2026-05-05 13:45 | 44.38155 | -56.74914 | 35142 ft | 529 kts | 76° |
| 2026-05-05 13:45 | 44.39766 | -56.64924 | 35146 ft | 529 kts | 76° |
| 2026-05-05 13:46 | 44.41381 | -56.54843 | 35152 ft | 530 kts | 76° |
| 2026-05-05 13:46 | 44.42979 | -56.44810 | 35146 ft | 531 kts | 76° |
| 2026-05-05 13:47 | 44.44581 | -56.34692 | 35150 ft | 531 kts | 76° |
| 2026-05-05 13:47 | 44.46166 | -56.24621 | 35155 ft | 532 kts | 77° |
| 2026-05-05 13:48 | 44.47753 | -56.14479 | 35154 ft | 532 kts | 77° |
| 2026-05-05 13:48 | 44.49265 | -56.04303 | 35143 ft | 533 kts | 79° |
| 2026-05-05 13:49 | 44.50423 | -55.94091 | 35159 ft | 534 kts | 81° |
| 2026-05-05 13:49 | 44.51505 | -55.83798 | 35155 ft | 534 kts | 81° |
| 2026-05-05 13:50 | 44.52601 | -55.73481 | 35152 ft | 534 kts | 81° |
| 2026-05-05 13:50 | 44.53705 | -55.63231 | 35159 ft | 534 kts | 81° |
| 2026-05-05 13:51 | 44.54816 | -55.52902 | 35156 ft | 535 kts | 82° |
| 2026-05-05 13:51 | 44.55916 | -55.42579 | 35156 ft | 536 kts | 82° |
| 2026-05-05 13:52 | 44.57008 | -55.32215 | 35165 ft | 536 kts | 82° |
| 2026-05-05 13:52 | 44.58083 | -55.21909 | 35164 ft | 537 kts | 82° |
| 2026-05-05 13:53 | 44.59161 | -55.11488 | 35162 ft | 538 kts | 82° |
| 2026-05-05 13:53 | 44.60222 | -55.01138 | 35157 ft | 539 kts | 82° |
| 2026-05-05 13:54 | 44.61287 | -54.90658 | 35160 ft | 541 kts | 83° |
| 2026-05-05 13:54 | 44.62335 | -54.80237 | 35162 ft | 542 kts | 83° |
| 2026-05-05 13:55 | 44.63384 | -54.69709 | 35160 ft | 543 kts | 83° |
| 2026-05-05 13:55 | 44.64424 | -54.59174 | 35174 ft | 545 kts | 83° |
| 2026-05-05 13:56 | 44.65456 | -54.48618 | 35161 ft | 546 kts | 83° |
| 2026-05-05 13:56 | 44.66474 | -54.38104 | 35161 ft | 546 kts | 83° |
| 2026-05-05 13:57 | 44.67493 | -54.27469 | 35173 ft | 547 kts | 83° |
| 2026-05-05 13:57 | 44.68494 | -54.16919 | 35162 ft | 548 kts | 83° |
| 2026-05-05 13:58 | 44.69493 | -54.06284 | 35162 ft | 548 kts | 83° |
| 2026-05-05 13:58 | 44.70315 | -53.97443 | 35171 ft | 549 kts | 83° |
| 2026-05-05 13:59 | 44.71785 | -53.81456 | 35163 ft | 549 kts | 83° |
| 2026-05-05 14:00 | 44.73232 | -53.65465 | 35175 ft | 549 kts | 84° |
| 2026-05-05 14:00 | 44.74181 | -53.54829 | 35174 ft | 549 kts | 84° |
| 2026-05-05 14:01 | 44.75119 | -53.44210 | 35168 ft | 549 kts | 84° |
| 2026-05-05 14:01 | 44.76053 | -53.33522 | 35169 ft | 549 kts | 84° |
| 2026-05-05 14:02 | 44.76977 | -53.22828 | 35171 ft | 549 kts | 84° |
| 2026-05-05 14:02 | 44.77890 | -53.12145 | 35171 ft | 549 kts | 84° |
| 2026-05-05 14:03 | 44.78792 | -53.01473 | 35176 ft | 549 kts | 84° |
| 2026-05-05 14:03 | 44.79679 | -52.90848 | 35198 ft | 551 kts | 84° |
| 2026-05-05 14:04 | 44.80125 | -52.85466 | 35419 ft | 553 kts | 84° |
| 2026-05-05 14:04 | 44.80567 | -52.80097 | 35781 ft | 552 kts | 85° |
| 2026-05-05 14:04 | 44.81006 | -52.74732 | 36179 ft | 550 kts | 85° |
| 2026-05-05 14:04 | 44.81442 | -52.69380 | 36516 ft | 549 kts | 85° |
| 2026-05-05 14:05 | 44.81875 | -52.64032 | 36757 ft | 550 kts | 85° |
| 2026-05-05 14:05 | 44.82307 | -52.58655 | 36975 ft | 552 kts | 85° |
| 2026-05-05 14:05 | 44.82736 | -52.53277 | 37094 ft | 554 kts | 85° |
| 2026-05-05 14:05 | 44.83159 | -52.47957 | 37140 ft | 552 kts | 85° |
| 2026-05-05 14:06 | 44.84004 | -52.37241 | 37162 ft | 547 kts | 85° |
| 2026-05-05 14:06 | 44.84833 | -52.26586 | 37170 ft | 545 kts | 85° |
| 2026-05-05 14:07 | 44.85649 | -52.15958 | 37173 ft | 544 kts | 86° |
| 2026-05-05 14:07 | 44.86450 | -52.05395 | 37180 ft | 544 kts | 86° |
| 2026-05-05 14:08 | 44.87248 | -51.94748 | 37183 ft | 546 kts | 86° |
| 2026-05-05 14:08 | 44.88040 | -51.84058 | 37180 ft | 548 kts | 86° |
| 2026-05-05 14:09 | 44.88817 | -51.73408 | 37185 ft | 550 kts | 86° |
| 2026-05-05 14:09 | 44.89586 | -51.62654 | 37188 ft | 551 kts | 86° |
| 2026-05-05 14:10 | 44.90348 | -51.51879 | 37188 ft | 553 kts | 86° |
| 2026-05-05 14:10 | 44.91104 | -51.41039 | 37191 ft | 553 kts | 86° |
| 2026-05-05 14:11 | 44.91848 | -51.30242 | 37193 ft | 553 kts | 87° |
| 2026-05-05 14:11 | 44.92579 | -51.19482 | 37188 ft | 553 kts | 87° |
| 2026-05-05 14:12 | 44.93301 | -51.08695 | 37193 ft | 553 kts | 87° |
| 2026-05-05 14:12 | 44.94015 | -50.97862 | 37193 ft | 552 kts | 87° |
| 2026-05-05 14:13 | 44.93844 | -50.87229 | 37204 ft | 538 kts | 109° |
| 2026-05-05 14:13 | 44.91985 | -50.77086 | 37184 ft | 540 kts | 99° |
| 2026-05-05 14:14 | 44.91985 | -50.71740 | 37209 ft | 547 kts | 88° |
| 2026-05-05 14:14 | 44.92366 | -50.66370 | 37216 ft | 551 kts | 86° |
| 2026-05-05 14:14 | 44.93275 | -50.55642 | 37216 ft | 555 kts | 86° |
| 2026-05-05 14:15 | 44.94046 | -50.44743 | 37213 ft | 558 kts | 88° |
| 2026-05-05 14:15 | 44.94689 | -50.33840 | 37216 ft | 560 kts | 88° |
| 2026-05-05 14:16 | 44.95319 | -50.22927 | 37221 ft | 561 kts | 88° |
| 2026-05-05 14:16 | 44.95969 | -50.11914 | 37210 ft | 560 kts | 88° |
| 2026-05-05 14:17 | 44.96605 | -50.00964 | 37213 ft | 559 kts | 88° |
| 2026-05-05 14:17 | 44.98069 | -49.90324 | 37223 ft | 558 kts | 67° |
| 2026-05-05 14:18 | 45.01182 | -49.80240 | 37228 ft | 559 kts | 67° |
| 2026-05-05 14:18 | 45.04031 | -49.69993 | 37224 ft | 560 kts | 70° |
| 2026-05-05 14:19 | 45.06638 | -49.59579 | 37224 ft | 561 kts | 72° |
| 2026-05-05 14:19 | 45.09176 | -49.49103 | 37223 ft | 562 kts | 72° |
| 2026-05-05 14:20 | 45.11720 | -49.38645 | 37226 ft | 564 kts | 72° |
| 2026-05-05 14:20 | 45.14295 | -49.28118 | 37226 ft | 564 kts | 72° |
| 2026-05-05 14:21 | 45.16869 | -49.17585 | 37225 ft | 565 kts | 72° |
| 2026-05-05 14:21 | 45.19424 | -49.07071 | 37224 ft | 565 kts | 72° |
| 2026-05-05 14:22 | 45.21956 | -48.96592 | 37228 ft | 565 kts | 72° |
| 2026-05-05 14:22 | 45.24499 | -48.86016 | 37227 ft | 565 kts | 72° |
| 2026-05-05 14:23 | 45.27034 | -48.75424 | 37226 ft | 564 kts | 72° |
| 2026-05-05 14:23 | 45.29539 | -48.64906 | 37230 ft | 564 kts | 72° |
| 2026-05-05 14:24 | 45.32048 | -48.54319 | 37229 ft | 564 kts | 72° |
| 2026-05-05 14:24 | 45.34533 | -48.43791 | 37231 ft | 564 kts | 72° |
| 2026-05-05 14:25 | 45.37022 | -48.33190 | 37229 ft | 564 kts | 72° |
| 2026-05-05 14:25 | 45.39501 | -48.22579 | 37233 ft | 564 kts | 73° |
| 2026-05-05 14:26 | 45.41964 | -48.11988 | 37232 ft | 564 kts | 73° |
| 2026-05-05 14:26 | 45.44417 | -48.01387 | 37237 ft | 564 kts | 73° |
| 2026-05-05 14:27 | 45.46859 | -47.90784 | 37231 ft | 564 kts | 73° |
| 2026-05-05 14:27 | 45.49303 | -47.80119 | 37248 ft | 564 kts | 73° |
| 2026-05-05 14:28 | 45.51719 | -47.69524 | 37243 ft | 564 kts | 73° |
| 2026-05-05 14:28 | 45.54139 | -47.58860 | 37236 ft | 565 kts | 73° |
| 2026-05-05 14:29 | 45.56539 | -47.48230 | 37246 ft | 565 kts | 73° |
| 2026-05-05 14:29 | 45.58941 | -47.37538 | 37245 ft | 565 kts | 73° |
| 2026-05-05 14:30 | 45.61319 | -47.26901 | 37245 ft | 565 kts | 74° |
| 2026-05-05 14:30 | 45.63700 | -47.16199 | 37242 ft | 564 kts | 74° |
| 2026-05-05 14:31 | 45.66074 | -47.05472 | 37245 ft | 564 kts | 74° |
| 2026-05-05 14:31 | 45.68418 | -46.94824 | 37250 ft | 564 kts | 74° |
| 2026-05-05 14:32 | 45.70766 | -46.84108 | 37249 ft | 564 kts | 74° |
| 2026-05-05 14:32 | 45.73109 | -46.73358 | 37253 ft | 564 kts | 74° |
| 2026-05-05 14:33 | 45.75429 | -46.62660 | 37253 ft | 563 kts | 75° |
| 2026-05-05 14:33 | 45.77733 | -46.51978 | 37255 ft | 563 kts | 75° |
| 2026-05-05 14:34 | 45.80038 | -46.41236 | 37258 ft | 563 kts | 75° |
| 2026-05-05 14:34 | 45.82334 | -46.30484 | 37251 ft | 563 kts | 75° |
| 2026-05-05 14:35 | 45.84606 | -46.19784 | 37260 ft | 563 kts | 75° |
| 2026-05-05 14:35 | 45.86882 | -46.09010 | 37260 ft | 563 kts | 75° |
| 2026-05-05 14:36 | 45.89135 | -45.98294 | 37261 ft | 563 kts | 75° |
| 2026-05-05 14:36 | 45.91394 | -45.87485 | 37263 ft | 563 kts | 75° |
| 2026-05-05 14:37 | 45.93639 | -45.76691 | 37264 ft | 563 kts | 75° |
| 2026-05-05 14:37 | 45.95860 | -45.65950 | 37267 ft | 563 kts | 75° |
| 2026-05-05 14:38 | 45.98083 | -45.55146 | 37265 ft | 563 kts | 76° |
| 2026-05-05 14:38 | 46.00299 | -45.44316 | 37268 ft | 563 kts | 76° |
| 2026-05-05 14:39 | 46.02491 | -45.33548 | 37269 ft | 563 kts | 76° |
| 2026-05-05 14:39 | 46.04690 | -45.22684 | 37269 ft | 564 kts | 76° |
| 2026-05-05 14:40 | 46.06861 | -45.11899 | 37271 ft | 564 kts | 76° |
| 2026-05-05 14:40 | 46.08675 | -45.02847 | 37269 ft | 564 kts | 76° |
| 2026-05-05 14:41 | 46.10848 | -44.91940 | 37269 ft | 564 kts | 76° |
| 2026-05-05 14:41 | 46.12996 | -44.81103 | 37275 ft | 564 kts | 76° |
| 2026-05-05 14:42 | 46.15134 | -44.70252 | 37275 ft | 564 kts | 76° |
| 2026-05-05 14:42 | 46.17273 | -44.59342 | 37275 ft | 564 kts | 76° |
| 2026-05-05 14:43 | 46.19403 | -44.48411 | 37277 ft | 564 kts | 76° |
| 2026-05-05 14:43 | 46.21507 | -44.37554 | 37280 ft | 564 kts | 76° |
| 2026-05-05 14:44 | 46.23618 | -44.26596 | 37277 ft | 565 kts | 77° |
| 2026-05-05 14:44 | 46.25704 | -44.15712 | 37277 ft | 564 kts | 77° |
| 2026-05-05 14:45 | 46.27791 | -44.04753 | 37279 ft | 564 kts | 77° |
| 2026-05-05 14:45 | 46.29858 | -43.93837 | 37281 ft | 564 kts | 77° |
| 2026-05-05 14:46 | 46.31925 | -43.82862 | 37280 ft | 564 kts | 77° |
| 2026-05-05 14:46 | 46.33969 | -43.71944 | 37293 ft | 564 kts | 77° |
| 2026-05-05 14:47 | 46.36014 | -43.60956 | 37286 ft | 564 kts | 77° |
| 2026-05-05 14:47 | 46.38044 | -43.49981 | 37282 ft | 564 kts | 77° |
| 2026-05-05 14:48 | 46.40067 | -43.38980 | 37284 ft | 564 kts | 77° |
| 2026-05-05 14:48 | 46.42064 | -43.28057 | 37284 ft | 563 kts | 77° |
| 2026-05-05 14:49 | 46.44065 | -43.17050 | 37282 ft | 563 kts | 77° |
| 2026-05-05 14:49 | 46.46041 | -43.06110 | 37284 ft | 563 kts | 78° |
| 2026-05-05 14:50 | 46.48016 | -42.95107 | 37290 ft | 563 kts | 78° |
| 2026-05-05 14:50 | 46.49981 | -42.84100 | 37289 ft | 563 kts | 78° |
| 2026-05-05 14:51 | 46.51933 | -42.73094 | 37291 ft | 563 kts | 78° |
| 2026-05-05 14:51 | 46.53882 | -42.62036 | 37288 ft | 563 kts | 78° |
| 2026-05-05 14:52 | 46.55805 | -42.51065 | 37291 ft | 564 kts | 78° |
| 2026-05-05 14:52 | 46.57735 | -42.39980 | 37294 ft | 564 kts | 78° |
| 2026-05-05 14:53 | 46.59646 | -42.28935 | 37294 ft | 565 kts | 78° |
| 2026-05-05 14:53 | 46.61559 | -42.17806 | 37290 ft | 566 kts | 78° |
| 2026-05-05 14:54 | 46.63461 | -42.06678 | 37288 ft | 566 kts | 78° |
| 2026-05-05 14:54 | 46.65341 | -41.95602 | 37288 ft | 567 kts | 78° |
| 2026-05-05 14:55 | 46.67225 | -41.84438 | 37292 ft | 567 kts | 78° |
| 2026-05-05 14:55 | 46.69101 | -41.73241 | 37292 ft | 568 kts | 78° |
| 2026-05-05 14:56 | 46.70954 | -41.62114 | 37298 ft | 568 kts | 78° |
| 2026-05-05 14:56 | 46.72809 | -41.50899 | 37286 ft | 568 kts | 78° |
| 2026-05-05 14:57 | 46.74643 | -41.39739 | 37288 ft | 568 kts | 78° |
| 2026-05-05 14:57 | 46.76475 | -41.28517 | 37287 ft | 568 kts | 78° |
| 2026-05-05 14:58 | 46.78300 | -41.17264 | 37295 ft | 568 kts | 78° |
| 2026-05-05 14:58 | 46.80099 | -41.06091 | 37288 ft | 568 kts | 78° |
| 2026-05-05 14:59 | 46.81905 | -40.94805 | 37289 ft | 568 kts | 78° |
| 2026-05-05 14:59 | 46.83682 | -40.83620 | 37290 ft | 568 kts | 78° |
| 2026-05-05 15:00 | 46.85163 | -40.74240 | 37287 ft | 568 kts | 78° |
| 2026-05-05 15:00 | 46.87222 | -40.61111 | 37285 ft | 568 kts | 78° |
| 2026-05-05 15:01 | 46.88982 | -40.49805 | 37295 ft | 568 kts | 78° |
| 2026-05-05 15:01 | 46.90716 | -40.38583 | 37291 ft | 568 kts | 78° |
| 2026-05-05 15:02 | 46.92449 | -40.27296 | 37288 ft | 568 kts | 78° |
| 2026-05-05 15:02 | 46.94170 | -40.16003 | 37288 ft | 567 kts | 78° |
| 2026-05-05 15:03 | 46.95877 | -40.04727 | 37288 ft | 566 kts | 78° |
| 2026-05-05 15:03 | 46.97923 | -39.93611 | 37288 ft | 565 kts | 70° |
| 2026-05-05 15:04 | 47.00638 | -39.82868 | 37295 ft | 564 kts | 69° |
| 2026-05-05 15:04 | 47.03427 | -39.72077 | 37285 ft | 564 kts | 69° |
| 2026-05-05 15:05 | 47.07502 | -39.55873 | 37283 ft | 563 kts | 70° |
| 2026-05-05 15:06 | 47.10160 | -39.45097 | 37280 ft | 563 kts | 70° |
| 2026-05-05 15:06 | 47.12818 | -39.34268 | 37279 ft | 563 kts | 70° |
| 2026-05-05 15:07 | 47.15454 | -39.23492 | 37277 ft | 562 kts | 70° |
| 2026-05-05 15:07 | 47.18097 | -39.12650 | 37281 ft | 562 kts | 70° |
| 2026-05-05 15:08 | 47.20711 | -39.01874 | 37273 ft | 561 kts | 70° |
| 2026-05-05 15:08 | 47.23329 | -38.91025 | 37272 ft | 561 kts | 70° |
| 2026-05-05 15:09 | 47.25917 | -38.80248 | 37278 ft | 561 kts | 70° |
| 2026-05-05 15:09 | 47.28508 | -38.69406 | 37273 ft | 560 kts | 70° |
| 2026-05-05 15:10 | 47.31091 | -38.58542 | 37273 ft | 560 kts | 70° |
| 2026-05-05 15:10 | 47.33644 | -38.47752 | 37269 ft | 560 kts | 70° |
| 2026-05-05 15:11 | 47.36190 | -38.36939 | 37267 ft | 559 kts | 70° |
| 2026-05-05 15:11 | 47.38732 | -38.26089 | 37266 ft | 559 kts | 70° |
| 2026-05-05 15:12 | 47.41263 | -38.15231 | 37267 ft | 558 kts | 70° |
| 2026-05-05 15:12 | 47.43769 | -38.04427 | 37265 ft | 558 kts | 70° |
| 2026-05-05 15:13 | 47.46278 | -37.93558 | 37263 ft | 557 kts | 70° |
| 2026-05-05 15:13 | 47.48773 | -37.82691 | 37264 ft | 556 kts | 70° |
| 2026-05-05 15:14 | 47.51238 | -37.71901 | 37261 ft | 556 kts | 70° |
| 2026-05-05 15:14 | 47.53706 | -37.61046 | 37261 ft | 555 kts | 70° |
| 2026-05-05 15:15 | 47.56147 | -37.50251 | 37261 ft | 555 kts | 70° |
| 2026-05-05 15:15 | 47.58588 | -37.39403 | 37258 ft | 554 kts | 71° |
| 2026-05-05 15:16 | 47.61004 | -37.28608 | 37258 ft | 554 kts | 71° |
| 2026-05-05 15:16 | 47.63422 | -37.17753 | 37254 ft | 553 kts | 71° |
| 2026-05-05 15:17 | 47.65813 | -37.06962 | 37254 ft | 552 kts | 71° |
| 2026-05-05 15:17 | 47.68204 | -36.96113 | 37253 ft | 552 kts | 71° |
| 2026-05-05 15:18 | 47.70582 | -36.85268 | 37253 ft | 551 kts | 71° |
| 2026-05-05 15:18 | 47.72929 | -36.74508 | 37250 ft | 550 kts | 71° |
| 2026-05-05 15:19 | 47.75282 | -36.63666 | 37251 ft | 550 kts | 71° |
| 2026-05-05 15:19 | 47.77622 | -36.52825 | 37247 ft | 550 kts | 71° |
| 2026-05-05 15:20 | 47.79950 | -36.41987 | 37246 ft | 549 kts | 71° |
| 2026-05-05 15:20 | 47.82251 | -36.31212 | 37248 ft | 549 kts | 71° |
| 2026-05-05 15:21 | 47.84560 | -36.20346 | 37245 ft | 549 kts | 71° |
| 2026-05-05 15:21 | 47.86841 | -36.09554 | 37239 ft | 549 kts | 71° |
| 2026-05-05 15:22 | 47.89115 | -35.98737 | 37236 ft | 548 kts | 71° |
| 2026-05-05 15:22 | 47.91389 | -35.87859 | 37233 ft | 548 kts | 71° |
| 2026-05-05 15:23 | 47.93647 | -35.77004 | 37241 ft | 548 kts | 71° |
| 2026-05-05 15:23 | 47.95902 | -35.66104 | 37232 ft | 548 kts | 71° |
| 2026-05-05 15:24 | 47.98131 | -35.55268 | 37240 ft | 548 kts | 71° |
| 2026-05-05 15:24 | 48.00351 | -35.44418 | 37235 ft | 548 kts | 71° |
| 2026-05-05 15:25 | 48.02567 | -35.33527 | 37236 ft | 547 kts | 71° |
| 2026-05-05 15:25 | 48.04403 | -35.24461 | 37232 ft | 547 kts | 71° |
| 2026-05-05 15:26 | 48.06598 | -35.13565 | 37247 ft | 547 kts | 71° |
| 2026-05-05 15:26 | 48.08779 | -35.02672 | 37231 ft | 547 kts | 71° |
| 2026-05-05 15:27 | 48.10943 | -34.91814 | 37224 ft | 546 kts | 71° |
| 2026-05-05 15:27 | 48.13097 | -34.80940 | 37231 ft | 546 kts | 71° |
| 2026-05-05 15:28 | 48.15244 | -34.70042 | 37232 ft | 545 kts | 71° |
| 2026-05-05 15:28 | 48.17389 | -34.59090 | 37224 ft | 545 kts | 71° |
| 2026-05-05 15:29 | 48.19504 | -34.48230 | 37243 ft | 545 kts | 71° |
| 2026-05-05 15:29 | 48.21619 | -34.37312 | 37225 ft | 545 kts | 71° |
| 2026-05-05 15:30 | 48.23725 | -34.26373 | 37242 ft | 544 kts | 71° |
| 2026-05-05 15:30 | 48.25807 | -34.15499 | 37231 ft | 545 kts | 71° |
| 2026-05-05 15:31 | 48.27896 | -34.04526 | 37222 ft | 545 kts | 71° |
| 2026-05-05 15:31 | 48.29958 | -33.93630 | 37238 ft | 544 kts | 71° |
| 2026-05-05 15:32 | 48.32021 | -33.82662 | 37235 ft | 544 kts | 71° |
| 2026-05-05 15:32 | 48.34066 | -33.71733 | 37240 ft | 544 kts | 71° |
| 2026-05-05 15:33 | 48.36099 | -33.60797 | 37226 ft | 545 kts | 71° |
| 2026-05-05 15:33 | 48.38130 | -33.49808 | 37245 ft | 543 kts | 71° |
| 2026-05-05 15:34 | 48.40145 | -33.38844 | 37236 ft | 543 kts | 71° |
| 2026-05-05 15:34 | 48.42149 | -33.27875 | 37246 ft | 543 kts | 71° |
| 2026-05-05 15:35 | 48.44131 | -33.16961 | 37249 ft | 542 kts | 71° |
| 2026-05-05 15:35 | 48.46115 | -33.05967 | 37248 ft | 542 kts | 71° |
| 2026-05-05 15:36 | 48.48072 | -32.95057 | 37256 ft | 542 kts | 71° |
| 2026-05-05 15:36 | 48.50033 | -32.84063 | 37255 ft | 542 kts | 72° |
| 2026-05-05 15:37 | 48.51976 | -32.73099 | 37259 ft | 542 kts | 72° |
| 2026-05-05 15:37 | 48.53917 | -32.62078 | 37263 ft | 542 kts | 72° |
| 2026-05-05 15:38 | 48.55830 | -32.51148 | 37269 ft | 542 kts | 72° |
| 2026-05-05 15:38 | 48.57747 | -32.40128 | 37269 ft | 541 kts | 72° |
| 2026-05-05 15:39 | 48.59639 | -32.29185 | 37278 ft | 541 kts | 72° |
| 2026-05-05 15:39 | 48.61532 | -32.18167 | 37308 ft | 540 kts | 71° |
| 2026-05-05 15:40 | 48.63411 | -32.07162 | 37297 ft | 540 kts | 72° |
| 2026-05-05 15:40 | 48.65280 | -31.96140 | 37273 ft | 540 kts | 72° |
| 2026-05-05 15:41 | 48.67122 | -31.85207 | 37276 ft | 536 kts | 72° |
| 2026-05-05 15:41 | 48.68952 | -31.74276 | 37283 ft | 533 kts | 72° |
| 2026-05-05 15:42 | 48.70751 | -31.63473 | 37287 ft | 531 kts | 72° |
| 2026-05-05 15:42 | 48.72542 | -31.52647 | 37298 ft | 529 kts | 72° |
| 2026-05-05 15:43 | 48.74323 | -31.41808 | 37297 ft | 529 kts | 72° |
| 2026-05-05 15:43 | 48.76083 | -31.31037 | 37303 ft | 529 kts | 72° |
| 2026-05-05 15:44 | 48.77844 | -31.20183 | 37303 ft | 529 kts | 72° |
| 2026-05-05 15:44 | 48.79583 | -31.09392 | 37306 ft | 529 kts | 72° |
| 2026-05-05 15:45 | 48.81324 | -30.98521 | 37303 ft | 529 kts | 72° |
| 2026-05-05 15:45 | 48.83049 | -30.87671 | 37308 ft | 528 kts | 72° |
| 2026-05-05 15:46 | 48.84763 | -30.76829 | 37306 ft | 527 kts | 72° |
| 2026-05-05 15:46 | 48.86451 | -30.66076 | 37315 ft | 526 kts | 72° |
| 2026-05-05 15:47 | 48.88138 | -30.55256 | 37314 ft | 525 kts | 73° |
| 2026-05-05 15:47 | 48.89811 | -30.44456 | 37317 ft | 524 kts | 73° |
| 2026-05-05 15:48 | 48.91463 | -30.33725 | 37316 ft | 523 kts | 73° |
| 2026-05-05 15:48 | 48.93112 | -30.22937 | 37324 ft | 522 kts | 73° |
| 2026-05-05 15:49 | 48.94744 | -30.12184 | 37323 ft | 521 kts | 73° |
| 2026-05-05 15:49 | 48.96358 | -30.01497 | 37323 ft | 521 kts | 73° |
| 2026-05-05 15:50 | 48.98236 | -29.90866 | 37329 ft | 518 kts | 69° |
| 2026-05-05 15:50 | 49.00340 | -29.80370 | 37331 ft | 517 kts | 69° |
| 2026-05-05 15:51 | 49.02438 | -29.69935 | 37331 ft | 517 kts | 69° |
| 2026-05-05 15:51 | 49.04507 | -29.59437 | 37335 ft | 517 kts | 69° |
| 2026-05-05 15:52 | 49.06555 | -29.48899 | 37333 ft | 517 kts | 69° |
| 2026-05-05 15:52 | 49.08573 | -29.38433 | 37342 ft | 516 kts | 69° |
| 2026-05-05 15:53 | 49.10594 | -29.27905 | 37341 ft | 516 kts | 70° |
| 2026-05-05 15:53 | 49.12595 | -29.17430 | 37340 ft | 516 kts | 70° |
| 2026-05-05 15:54 | 49.14601 | -29.06874 | 37342 ft | 516 kts | 70° |
| 2026-05-05 15:54 | 49.16582 | -28.96388 | 37347 ft | 515 kts | 70° |
| 2026-05-05 15:55 | 49.18563 | -28.85843 | 37349 ft | 514 kts | 70° |
| 2026-05-05 15:55 | 49.20516 | -28.75389 | 37342 ft | 513 kts | 70° |
| 2026-05-05 15:56 | 49.22465 | -28.64895 | 37350 ft | 511 kts | 70° |
| 2026-05-05 15:56 | 49.24397 | -28.54432 | 37347 ft | 509 kts | 70° |
| 2026-05-05 15:57 | 49.26304 | -28.44047 | 37339 ft | 507 kts | 70° |
| 2026-05-05 15:57 | 49.28193 | -28.33707 | 37352 ft | 505 kts | 70° |
| 2026-05-05 15:58 | 49.30078 | -28.23325 | 37346 ft | 503 kts | 70° |
| 2026-05-05 15:58 | 49.31935 | -28.13042 | 37345 ft | 501 kts | 70° |
| 2026-05-05 15:59 | 49.33790 | -28.02711 | 37350 ft | 500 kts | 71° |
| 2026-05-05 15:59 | 49.35617 | -27.92477 | 37351 ft | 499 kts | 71° |
| 2026-05-05 16:00 | 49.37442 | -27.82200 | 37345 ft | 499 kts | 71° |
| 2026-05-05 16:00 | 49.39256 | -27.71922 | 37354 ft | 499 kts | 71° |
| 2026-05-05 16:01 | 49.41064 | -27.61615 | 37353 ft | 499 kts | 71° |
| 2026-05-05 16:01 | 49.42850 | -27.51382 | 37347 ft | 499 kts | 71° |
| 2026-05-05 16:02 | 49.44641 | -27.41057 | 37349 ft | 499 kts | 71° |
| 2026-05-05 16:02 | 49.46422 | -27.30726 | 37345 ft | 500 kts | 71° |
| 2026-05-05 16:03 | 49.48188 | -27.20421 | 37349 ft | 500 kts | 71° |
| 2026-05-05 16:03 | 49.49944 | -27.10116 | 37349 ft | 500 kts | 71° |
| 2026-05-05 16:04 | 49.51703 | -26.99735 | 37347 ft | 500 kts | 71° |
| 2026-05-05 16:04 | 49.53451 | -26.89351 | 37349 ft | 500 kts | 71° |
| 2026-05-05 16:05 | 49.55180 | -26.79022 | 37347 ft | 500 kts | 71° |
| 2026-05-05 16:05 | 49.56914 | -26.68600 | 37350 ft | 500 kts | 71° |
| 2026-05-05 16:06 | 49.58622 | -26.58263 | 37347 ft | 500 kts | 71° |
| 2026-05-05 16:06 | 49.60335 | -26.47839 | 37349 ft | 499 kts | 71° |
| 2026-05-05 16:07 | 49.62026 | -26.37486 | 37346 ft | 499 kts | 71° |
| 2026-05-05 16:07 | 49.63702 | -26.27151 | 37339 ft | 498 kts | 71° |
| 2026-05-05 16:08 | 49.65360 | -26.16751 | 37343 ft | 497 kts | 72° |
| 2026-05-05 16:08 | 49.66999 | -26.06439 | 37346 ft | 497 kts | 71° |
| 2026-05-05 16:09 | 49.68648 | -25.96071 | 37347 ft | 496 kts | 71° |
| 2026-05-05 16:09 | 49.70291 | -25.85703 | 37348 ft | 496 kts | 71° |
| 2026-05-05 16:10 | 49.71915 | -25.75392 | 37348 ft | 496 kts | 72° |
| 2026-05-05 16:10 | 49.73543 | -25.64983 | 37347 ft | 496 kts | 72° |
| 2026-05-05 16:11 | 49.75146 | -25.54667 | 37353 ft | 496 kts | 72° |
| 2026-05-05 16:12 | 49.78082 | -25.35602 | 37348 ft | 497 kts | 72° |
| 2026-05-05 16:13 | 49.82025 | -25.09626 | 37345 ft | 497 kts | 72° |
| 2026-05-05 16:13 | 49.83594 | -24.99171 | 37346 ft | 497 kts | 72° |
| 2026-05-05 16:14 | 49.86691 | -24.78330 | 37344 ft | 496 kts | 73° |
| 2026-05-05 16:15 | 49.89748 | -24.57477 | 37344 ft | 496 kts | 73° |
| 2026-05-05 16:16 | 49.92764 | -24.36630 | 37340 ft | 495 kts | 73° |
| 2026-05-05 16:17 | 49.94997 | -24.21006 | 37346 ft | 495 kts | 73° |
| 2026-05-05 16:18 | 49.97217 | -24.05303 | 37345 ft | 494 kts | 73° |
| 2026-05-05 16:19 | 49.99405 | -23.89673 | 37339 ft | 494 kts | 74° |
| 2026-05-05 16:19 | 50.01568 | -23.74056 | 37343 ft | 493 kts | 74° |
| 2026-05-05 16:20 | 50.04419 | -23.53212 | 37344 ft | 492 kts | 74° |
| 2026-05-05 16:22 | 50.07923 | -23.27176 | 37340 ft | 491 kts | 75° |
| 2026-05-05 16:23 | 50.10679 | -23.06360 | 37338 ft | 490 kts | 75° |
| 2026-05-05 16:23 | 50.12714 | -22.90784 | 37338 ft | 490 kts | 75° |
| 2026-05-05 16:24 | 50.14054 | -22.80445 | 37333 ft | 489 kts | 75° |
| 2026-05-05 16:25 | 50.16056 | -22.64838 | 37324 ft | 488 kts | 76° |
| 2026-05-05 16:25 | 50.18033 | -22.49255 | 37330 ft | 488 kts | 76° |
| 2026-05-05 16:26 | 50.20630 | -22.28507 | 37332 ft | 487 kts | 76° |
| 2026-05-05 16:27 | 50.21920 | -22.18075 | 37320 ft | 487 kts | 76° |
| 2026-05-05 16:27 | 50.23188 | -22.07747 | 37320 ft | 486 kts | 76° |
| 2026-05-05 16:28 | 50.24457 | -21.97335 | 37322 ft | 486 kts | 76° |
| 2026-05-05 16:28 | 50.25714 | -21.86932 | 37326 ft | 486 kts | 77° |
| 2026-05-05 16:29 | 50.26953 | -21.76606 | 37324 ft | 486 kts | 77° |
| 2026-05-05 16:29 | 50.28191 | -21.66197 | 37319 ft | 486 kts | 77° |
| 2026-05-05 16:30 | 50.29418 | -21.55802 | 37318 ft | 486 kts | 77° |
| 2026-05-05 16:30 | 50.30628 | -21.45464 | 37319 ft | 485 kts | 77° |
| 2026-05-05 16:31 | 50.31838 | -21.35036 | 37314 ft | 485 kts | 77° |
| 2026-05-05 16:31 | 50.33038 | -21.24617 | 37318 ft | 485 kts | 78° |
| 2026-05-05 16:32 | 50.34222 | -21.14250 | 37314 ft | 485 kts | 78° |
| 2026-05-05 16:32 | 50.35402 | -21.03832 | 37312 ft | 485 kts | 78° |
| 2026-05-05 16:33 | 50.36565 | -20.93477 | 37308 ft | 485 kts | 78° |
| 2026-05-05 16:33 | 50.37726 | -20.83049 | 37306 ft | 485 kts | 78° |
| 2026-05-05 16:34 | 50.38872 | -20.72676 | 37307 ft | 485 kts | 78° |
| 2026-05-05 16:34 | 50.40012 | -20.62262 | 37304 ft | 485 kts | 78° |
| 2026-05-05 16:35 | 50.41146 | -20.51809 | 37304 ft | 484 kts | 78° |
| 2026-05-05 16:35 | 50.42261 | -20.41450 | 37299 ft | 484 kts | 79° |
| 2026-05-05 16:36 | 50.43372 | -20.31033 | 37298 ft | 484 kts | 79° |
| 2026-05-05 16:36 | 50.44475 | -20.20594 | 37297 ft | 483 kts | 79° |
| 2026-05-05 16:37 | 50.45561 | -20.10227 | 37298 ft | 483 kts | 79° |
| 2026-05-05 16:37 | 50.46646 | -19.99795 | 37297 ft | 483 kts | 79° |
| 2026-05-05 16:38 | 50.47833 | -19.89406 | 37292 ft | 482 kts | 77° |
| 2026-05-05 16:38 | 50.49111 | -19.79121 | 37293 ft | 482 kts | 77° |
| 2026-05-05 16:39 | 50.50386 | -19.68771 | 37291 ft | 482 kts | 77° |
| 2026-05-05 16:39 | 50.51623 | -19.58488 | 37290 ft | 481 kts | 78° |
| 2026-05-05 16:40 | 50.52849 | -19.48132 | 37288 ft | 481 kts | 78° |
| 2026-05-05 16:40 | 50.54064 | -19.37773 | 37286 ft | 481 kts | 78° |
| 2026-05-05 16:41 | 50.55269 | -19.27428 | 37283 ft | 481 kts | 78° |
| 2026-05-05 16:41 | 50.56466 | -19.17068 | 37282 ft | 480 kts | 78° |
| 2026-05-05 16:42 | 50.57645 | -19.06780 | 37279 ft | 480 kts | 78° |
| 2026-05-05 16:42 | 50.58826 | -18.96399 | 37277 ft | 480 kts | 78° |
| 2026-05-05 16:43 | 50.59988 | -18.86090 | 37278 ft | 480 kts | 78° |
| 2026-05-05 16:43 | 50.61148 | -18.75714 | 37275 ft | 480 kts | 78° |
| 2026-05-05 16:44 | 50.62297 | -18.65357 | 37271 ft | 480 kts | 78° |
| 2026-05-05 16:44 | 50.63430 | -18.55048 | 37269 ft | 480 kts | 78° |
| 2026-05-05 16:45 | 50.64562 | -18.44658 | 37266 ft | 480 kts | 79° |
| 2026-05-05 16:45 | 50.65682 | -18.34298 | 37265 ft | 480 kts | 79° |
| 2026-05-05 16:46 | 50.66789 | -18.23963 | 37265 ft | 479 kts | 79° |
| 2026-05-05 16:46 | 50.67891 | -18.13586 | 37266 ft | 479 kts | 79° |
| 2026-05-05 16:47 | 50.68981 | -18.03231 | 37258 ft | 479 kts | 79° |
| 2026-05-05 16:47 | 50.70056 | -17.92915 | 37261 ft | 479 kts | 79° |
| 2026-05-05 16:48 | 50.71130 | -17.82516 | 37259 ft | 478 kts | 79° |
| 2026-05-05 16:48 | 50.72190 | -17.72178 | 37255 ft | 478 kts | 79° |
| 2026-05-05 16:49 | 50.73245 | -17.61794 | 37255 ft | 478 kts | 79° |
| 2026-05-05 16:49 | 50.74288 | -17.51425 | 37256 ft | 477 kts | 79° |
| 2026-05-05 16:50 | 50.75315 | -17.41122 | 37251 ft | 477 kts | 79° |
| 2026-05-05 16:50 | 50.76340 | -17.30729 | 37248 ft | 477 kts | 79° |
| 2026-05-05 16:51 | 50.77347 | -17.20430 | 37244 ft | 476 kts | 79° |
| 2026-05-05 16:51 | 50.78353 | -17.10047 | 37243 ft | 476 kts | 79° |
| 2026-05-05 16:52 | 50.79341 | -16.99748 | 37243 ft | 476 kts | 79° |
| 2026-05-05 16:52 | 50.80327 | -16.89378 | 37240 ft | 475 kts | 80° |
| 2026-05-05 16:53 | 50.81301 | -16.79020 | 37238 ft | 475 kts | 80° |
| 2026-05-05 16:53 | 50.82329 | -16.68771 | 37236 ft | 474 kts | 78° |
| 2026-05-05 16:54 | 50.83502 | -16.58496 | 37233 ft | 473 kts | 78° |
| 2026-05-05 16:54 | 50.84666 | -16.48275 | 37237 ft | 473 kts | 78° |
| 2026-05-05 16:55 | 50.85801 | -16.38023 | 37232 ft | 472 kts | 78° |
| 2026-05-05 16:55 | 50.86916 | -16.27752 | 37226 ft | 472 kts | 78° |
| 2026-05-05 16:56 | 50.88011 | -16.17573 | 37226 ft | 471 kts | 78° |
| 2026-05-05 16:56 | 50.88928 | -16.08988 | 37228 ft | 470 kts | 78° |
| 2026-05-05 16:57 | 50.90004 | -15.98843 | 37221 ft | 470 kts | 78° |
| 2026-05-05 16:57 | 50.91078 | -15.88619 | 37218 ft | 469 kts | 79° |
| 2026-05-05 16:58 | 50.92140 | -15.78426 | 37217 ft | 468 kts | 79° |
| 2026-05-05 16:58 | 50.93188 | -15.68279 | 37216 ft | 467 kts | 79° |
| 2026-05-05 16:59 | 50.94229 | -15.58108 | 37211 ft | 467 kts | 79° |
| 2026-05-05 16:59 | 50.95262 | -15.47931 | 37211 ft | 466 kts | 79° |
| 2026-05-05 17:00 | 50.96277 | -15.37833 | 37198 ft | 465 kts | 79° |
| 2026-05-05 17:00 | 50.97290 | -15.27675 | 37213 ft | 465 kts | 79° |
| 2026-05-05 17:01 | 50.98293 | -15.17505 | 37219 ft | 465 kts | 79° |
| 2026-05-05 17:01 | 50.99283 | -15.07401 | 37206 ft | 465 kts | 79° |
| 2026-05-05 17:02 | 51.00079 | -14.97184 | 37198 ft | 466 kts | 86° |
| 2026-05-05 17:02 | 51.00119 | -14.86864 | 37209 ft | 467 kts | 88° |
| 2026-05-05 17:03 | 51.00092 | -14.76576 | 37198 ft | 468 kts | 88° |
| 2026-05-05 17:03 | 51.00090 | -14.66262 | 37199 ft | 469 kts | 88° |
| 2026-05-05 17:04 | 51.00099 | -14.55871 | 37203 ft | 470 kts | 88° |
| 2026-05-05 17:04 | 51.00103 | -14.45470 | 37193 ft | 470 kts | 88° |
| 2026-05-05 17:05 | 51.00095 | -14.35117 | 37193 ft | 470 kts | 88° |
| 2026-05-05 17:05 | 51.00078 | -14.24730 | 37198 ft | 470 kts | 88° |
| 2026-05-05 17:06 | 51.00052 | -14.14419 | 37193 ft | 469 kts | 88° |
| 2026-05-05 17:06 | 51.00028 | -14.04063 | 37193 ft | 468 kts | 86° |
| 2026-05-05 17:07 | 51.00759 | -13.93821 | 37185 ft | 464 kts | 76° |
| 2026-05-05 17:07 | 51.02158 | -13.83858 | 37192 ft | 463 kts | 75° |
| 2026-05-05 17:08 | 51.03574 | -13.73871 | 37177 ft | 463 kts | 76° |
| 2026-05-05 17:08 | 51.04956 | -13.63872 | 37175 ft | 462 kts | 76° |
| 2026-05-05 17:09 | 51.06305 | -13.53928 | 37176 ft | 462 kts | 76° |
| 2026-05-05 17:09 | 51.07652 | -13.43882 | 37168 ft | 462 kts | 76° |
| 2026-05-05 17:10 | 51.08980 | -13.33914 | 37171 ft | 462 kts | 76° |
| 2026-05-05 17:10 | 51.10300 | -13.23944 | 37173 ft | 462 kts | 76° |
| 2026-05-05 17:11 | 51.11622 | -13.13895 | 37170 ft | 463 kts | 76° |
| 2026-05-05 17:11 | 51.12925 | -13.03910 | 37170 ft | 463 kts | 76° |
| 2026-05-05 17:12 | 51.14229 | -12.93854 | 37166 ft | 463 kts | 76° |
| 2026-05-05 17:12 | 51.15523 | -12.83799 | 37160 ft | 463 kts | 76° |
| 2026-05-05 17:13 | 51.16803 | -12.73781 | 37162 ft | 463 kts | 76° |
| 2026-05-05 17:13 | 51.18084 | -12.63683 | 37157 ft | 464 kts | 76° |
| 2026-05-05 17:14 | 51.19347 | -12.53656 | 37154 ft | 464 kts | 76° |
| 2026-05-05 17:14 | 51.20610 | -12.43552 | 37155 ft | 464 kts | 77° |
| 2026-05-05 17:15 | 51.21865 | -12.33433 | 37152 ft | 464 kts | 77° |
| 2026-05-05 17:15 | 51.23112 | -12.23304 | 37147 ft | 464 kts | 77° |
| 2026-05-05 17:16 | 51.24341 | -12.13252 | 37148 ft | 464 kts | 77° |
| 2026-05-05 17:16 | 51.25566 | -12.03150 | 37147 ft | 464 kts | 77° |
| 2026-05-05 17:17 | 51.26788 | -11.93001 | 37141 ft | 464 kts | 77° |
| 2026-05-05 17:17 | 51.28000 | -11.82852 | 37142 ft | 465 kts | 77° |
| 2026-05-05 17:18 | 51.29197 | -11.72746 | 37135 ft | 465 kts | 77° |
| 2026-05-05 17:18 | 51.30394 | -11.62571 | 37133 ft | 465 kts | 77° |
| 2026-05-05 17:19 | 51.31581 | -11.52393 | 37131 ft | 465 kts | 77° |
| 2026-05-05 17:19 | 51.32751 | -11.42286 | 37129 ft | 465 kts | 77° |
| 2026-05-05 17:20 | 51.33921 | -11.32095 | 37126 ft | 465 kts | 77° |
| 2026-05-05 17:20 | 51.35080 | -11.21910 | 37127 ft | 465 kts | 78° |
| 2026-05-05 17:21 | 51.36230 | -11.11730 | 37124 ft | 465 kts | 78° |
| 2026-05-05 17:22 | 51.37934 | -10.96496 | 37118 ft | 465 kts | 78° |
| 2026-05-05 17:22 | 51.39064 | -10.86281 | 37114 ft | 465 kts | 78° |
| 2026-05-05 17:23 | 51.40177 | -10.76140 | 37113 ft | 465 kts | 78° |
| 2026-05-05 17:23 | 51.41290 | -10.65913 | 37108 ft | 465 kts | 78° |
| 2026-05-05 17:24 | 51.42394 | -10.55684 | 37110 ft | 465 kts | 78° |
| 2026-05-05 17:24 | 51.43481 | -10.45519 | 37102 ft | 465 kts | 78° |
| 2026-05-05 17:25 | 51.44568 | -10.35267 | 37107 ft | 466 kts | 78° |
| 2026-05-05 17:25 | 51.45648 | -10.24995 | 37097 ft | 466 kts | 79° |
| 2026-05-05 17:26 | 51.46713 | -10.14774 | 37098 ft | 467 kts | 79° |
| 2026-05-05 17:26 | 51.47775 | -10.04495 | 37090 ft | 467 kts | 79° |
| 2026-05-05 17:27 | 51.48829 | -9.94198 | 37091 ft | 468 kts | 79° |
| 2026-05-05 17:27 | 51.49877 | -9.83869 | 37084 ft | 468 kts | 79° |
| 2026-05-05 17:28 | 51.50915 | -9.73543 | 37094 ft | 469 kts | 79° |
| 2026-05-05 17:28 | 51.51947 | -9.63180 | 37136 ft | 472 kts | 80° |
| 2026-05-05 17:29 | 51.52987 | -9.52650 | 37097 ft | 486 kts | 80° |
| 2026-05-05 17:29 | 51.54046 | -9.41808 | 37085 ft | 492 kts | 80° |
| 2026-05-05 17:30 | 51.55099 | -9.30919 | 37081 ft | 492 kts | 81° |
| 2026-05-05 17:30 | 51.56134 | -9.20105 | 37081 ft | 490 kts | 81° |
| 2026-05-05 17:31 | 51.57161 | -9.09279 | 37072 ft | 489 kts | 81° |
| 2026-05-05 17:31 | 51.58171 | -8.98511 | 37070 ft | 488 kts | 81° |
| 2026-05-05 17:32 | 51.59174 | -8.87717 | 37071 ft | 486 kts | 81° |
| 2026-05-05 17:32 | 51.60166 | -8.76922 | 37076 ft | 486 kts | 81° |
| 2026-05-05 17:33 | 51.61141 | -8.66209 | 37064 ft | 486 kts | 81° |
| 2026-05-05 17:33 | 51.62111 | -8.55439 | 37077 ft | 485 kts | 81° |
| 2026-05-05 17:34 | 51.63064 | -8.44732 | 37073 ft | 486 kts | 81° |
| 2026-05-05 17:34 | 51.64016 | -8.33930 | 37064 ft | 486 kts | 81° |
| 2026-05-05 17:35 | 51.64959 | -8.23118 | 37062 ft | 486 kts | 81° |
| 2026-05-05 17:35 | 51.65886 | -8.12368 | 37060 ft | 486 kts | 82° |
| 2026-05-05 17:36 | 51.66807 | -8.01563 | 37061 ft | 487 kts | 82° |
| 2026-05-05 17:36 | 51.67721 | -7.90730 | 37059 ft | 487 kts | 82° |
| 2026-05-05 17:37 | 51.68623 | -7.79907 | 37050 ft | 487 kts | 82° |
| 2026-05-05 17:37 | 51.69510 | -7.69148 | 37062 ft | 486 kts | 82° |
| 2026-05-05 17:38 | 51.70391 | -7.58326 | 37058 ft | 486 kts | 82° |
| 2026-05-05 17:38 | 51.71258 | -7.47567 | 37054 ft | 486 kts | 82° |
| 2026-05-05 17:39 | 51.72119 | -7.36744 | 37060 ft | 486 kts | 82° |
| 2026-05-05 17:39 | 51.72967 | -7.25960 | 37061 ft | 486 kts | 82° |
| 2026-05-05 17:40 | 51.73671 | -7.16902 | 37047 ft | 485 kts | 82° |
| 2026-05-05 17:40 | 51.74499 | -7.06136 | 37048 ft | 485 kts | 82° |
| 2026-05-05 17:41 | 51.75322 | -6.95299 | 37052 ft | 485 kts | 83° |
| 2026-05-05 17:41 | 51.76130 | -6.84534 | 37050 ft | 485 kts | 83° |
| 2026-05-05 17:42 | 51.76932 | -6.73714 | 37052 ft | 485 kts | 83° |
| 2026-05-05 17:42 | 51.77724 | -6.62894 | 37052 ft | 484 kts | 83° |
| 2026-05-05 17:43 | 51.77851 | -6.52085 | 37052 ft | 484 kts | 95° |
| 2026-05-05 17:43 | 51.76929 | -6.41290 | 37051 ft | 484 kts | 99° |
| 2026-05-05 17:44 | 51.75880 | -6.30529 | 37053 ft | 484 kts | 99° |
| 2026-05-05 17:44 | 51.74856 | -6.19843 | 37052 ft | 484 kts | 98° |
| 2026-05-05 17:45 | 51.73845 | -6.09088 | 37053 ft | 484 kts | 98° |
| 2026-05-05 17:45 | 51.72831 | -5.98323 | 37047 ft | 484 kts | 98° |
| 2026-05-05 17:46 | 51.71813 | -5.87633 | 37045 ft | 484 kts | 99° |
| 2026-05-05 17:46 | 51.70781 | -5.76913 | 37047 ft | 483 kts | 99° |
| 2026-05-05 17:47 | 51.69738 | -5.66193 | 37043 ft | 483 kts | 99° |
| 2026-05-05 17:47 | 51.68690 | -5.55537 | 37041 ft | 483 kts | 99° |
| 2026-05-05 17:48 | 51.67628 | -5.44833 | 37038 ft | 484 kts | 99° |
| 2026-05-05 17:48 | 51.66553 | -5.34102 | 37035 ft | 484 kts | 99° |
| 2026-05-05 17:49 | 51.65470 | -5.23392 | 37033 ft | 484 kts | 99° |
| 2026-05-05 17:49 | 51.64384 | -5.12747 | 37030 ft | 485 kts | 99° |
| 2026-05-05 17:50 | 51.63277 | -5.02012 | 37028 ft | 485 kts | 99° |
| 2026-05-05 17:50 | 51.62162 | -4.91289 | 37024 ft | 485 kts | 99° |
| 2026-05-05 17:51 | 51.61042 | -4.80620 | 37018 ft | 485 kts | 99° |
| 2026-05-05 17:51 | 51.59906 | -4.69891 | 37015 ft | 484 kts | 99° |
| 2026-05-05 17:52 | 51.58775 | -4.59304 | 37015 ft | 484 kts | 99° |
| 2026-05-05 17:52 | 51.57624 | -4.48630 | 37007 ft | 483 kts | 99° |
| 2026-05-05 17:53 | 51.56470 | -4.38023 | 37005 ft | 482 kts | 99° |
| 2026-05-05 17:53 | 51.55306 | -4.27397 | 37001 ft | 482 kts | 99° |
| 2026-05-05 17:54 | 51.54137 | -4.16830 | 37001 ft | 482 kts | 99° |
| 2026-05-05 17:54 | 51.52959 | -4.06237 | 36994 ft | 481 kts | 100° |
| 2026-05-05 17:55 | 51.51774 | -3.95639 | 36983 ft | 480 kts | 100° |
| 2026-05-05 17:55 | 51.51187 | -3.90418 | 36802 ft | 478 kts | 100° |
| 2026-05-05 17:55 | 51.50589 | -3.85146 | 36444 ft | 478 kts | 100° |
| 2026-05-05 17:55 | 51.49978 | -3.79901 | 36082 ft | 479 kts | 100° |
| 2026-05-05 17:56 | 51.49356 | -3.74626 | 35719 ft | 480 kts | 100° |
| 2026-05-05 17:56 | 51.48741 | -3.69419 | 35461 ft | 478 kts | 100° |
| 2026-05-05 17:56 | 51.48126 | -3.64210 | 35260 ft | 475 kts | 100° |
| 2026-05-05 17:56 | 51.47643 | -3.58946 | 34900 ft | 476 kts | 96° |
| 2026-05-05 17:57 | 51.47320 | -3.53617 | 34427 ft | 476 kts | 95° |
| 2026-05-05 17:57 | 51.47032 | -3.48382 | 33906 ft | 473 kts | 95° |
| 2026-05-05 17:57 | 51.46749 | -3.43146 | 33299 ft | 469 kts | 95° |
| 2026-05-05 17:57 | 51.46464 | -3.37967 | 32706 ft | 465 kts | 95° |
| 2026-05-05 17:58 | 51.46168 | -3.32788 | 32118 ft | 462 kts | 96° |
| 2026-05-05 17:58 | 51.45868 | -3.27669 | 31551 ft | 458 kts | 96° |
| 2026-05-05 17:58 | 51.45563 | -3.22585 | 30986 ft | 455 kts | 97° |
| 2026-05-05 17:58 | 51.45260 | -3.17612 | 30446 ft | 453 kts | 97° |
| 2026-05-05 17:59 | 51.44952 | -3.12596 | 29872 ft | 450 kts | 97° |
| 2026-05-05 17:59 | 51.44643 | -3.07604 | 29215 ft | 447 kts | 97° |
| 2026-05-05 17:59 | 51.44339 | -3.02718 | 28618 ft | 444 kts | 97° |
| 2026-05-05 17:59 | 51.44031 | -2.97801 | 28014 ft | 441 kts | 97° |
| 2026-05-05 18:00 | 51.43723 | -2.92920 | 27449 ft | 438 kts | 97° |
| 2026-05-05 18:00 | 51.43414 | -2.88043 | 26848 ft | 436 kts | 97° |
| 2026-05-05 18:00 | 51.43106 | -2.83216 | 26283 ft | 433 kts | 97° |
| 2026-05-05 18:00 | 51.42798 | -2.78415 | 25725 ft | 431 kts | 97° |
| 2026-05-05 18:01 | 51.42495 | -2.73717 | 25192 ft | 429 kts | 97° |
| 2026-05-05 18:01 | 51.42185 | -2.68952 | 24661 ft | 426 kts | 97° |
| 2026-05-05 18:01 | 51.41875 | -2.64227 | 24133 ft | 424 kts | 97° |
| 2026-05-05 18:01 | 51.41565 | -2.59510 | 23616 ft | 423 kts | 97° |
| 2026-05-05 18:02 | 51.41261 | -2.54895 | 23021 ft | 421 kts | 97° |
| 2026-05-05 18:02 | 51.40951 | -2.50238 | 22421 ft | 419 kts | 96° |
| 2026-05-05 18:02 | 51.40640 | -2.45609 | 21827 ft | 416 kts | 96° |
| 2026-05-05 18:02 | 51.40328 | -2.40998 | 21263 ft | 414 kts | 96° |
| 2026-05-05 18:03 | 51.40016 | -2.36416 | 20783 ft | 410 kts | 96° |
| 2026-05-05 18:03 | 51.39710 | -2.31955 | 20352 ft | 405 kts | 96° |
| 2026-05-05 18:03 | 51.39403 | -2.27492 | 19924 ft | 400 kts | 96° |
| 2026-05-05 18:03 | 51.39098 | -2.23072 | 19497 ft | 396 kts | 96° |
| 2026-05-05 18:04 | 51.38795 | -2.18710 | 19068 ft | 391 kts | 96° |
| 2026-05-05 18:04 | 51.38494 | -2.14401 | 18650 ft | 387 kts | 96° |
| 2026-05-05 18:04 | 51.38199 | -2.10193 | 18258 ft | 383 kts | 96° |
| 2026-05-05 18:04 | 51.37903 | -2.05983 | 17805 ft | 379 kts | 96° |
| 2026-05-05 18:05 | 51.37607 | -2.01804 | 17347 ft | 375 kts | 96° |
| 2026-05-05 18:05 | 51.37313 | -1.97686 | 16945 ft | 370 kts | 96° |
| 2026-05-05 18:05 | 51.37024 | -1.93666 | 16550 ft | 365 kts | 96° |
| 2026-05-05 18:05 | 51.36730 | -1.89599 | 16154 ft | 361 kts | 96° |
| 2026-05-05 18:06 | 51.36442 | -1.85622 | 15768 ft | 357 kts | 96° |
| 2026-05-05 18:06 | 51.36252 | -1.83022 | 15516 ft | 354 kts | 96° |
| 2026-05-05 18:06 | 51.35871 | -1.77808 | 15014 ft | 350 kts | 96° |
| 2026-05-05 18:06 | 51.35588 | -1.73948 | 14649 ft | 348 kts | 96° |
| 2026-05-05 18:07 | 51.35306 | -1.70124 | 14357 ft | 344 kts | 96° |
| 2026-05-05 18:07 | 51.35027 | -1.66346 | 14102 ft | 341 kts | 96° |
| 2026-05-05 18:07 | 51.34746 | -1.62561 | 14025 ft | 344 kts | 96° |
| 2026-05-05 18:07 | 51.34460 | -1.58732 | 13986 ft | 348 kts | 96° |
| 2026-05-05 18:08 | 51.34171 | -1.54870 | 13948 ft | 350 kts | 96° |
| 2026-05-05 18:08 | 51.33886 | -1.51056 | 13858 ft | 351 kts | 96° |
| 2026-05-05 18:08 | 51.33594 | -1.47167 | 13483 ft | 352 kts | 96° |
| 2026-05-05 18:08 | 51.33302 | -1.43275 | 13078 ft | 350 kts | 96° |
| 2026-05-05 18:09 | 51.33012 | -1.39425 | 12684 ft | 346 kts | 96° |
| 2026-05-05 18:09 | 51.32724 | -1.35625 | 12290 ft | 342 kts | 96° |
| 2026-05-05 18:09 | 51.32439 | -1.31870 | 11928 ft | 338 kts | 96° |
| 2026-05-05 18:09 | 51.32157 | -1.28167 | 11648 ft | 333 kts | 96° |
| 2026-05-05 18:10 | 51.31879 | -1.24539 | 11338 ft | 331 kts | 96° |
| 2026-05-05 18:10 | 51.31599 | -1.20899 | 11037 ft | 328 kts | 96° |
| 2026-05-05 18:10 | 51.31321 | -1.17277 | 10744 ft | 326 kts | 95° |
| 2026-05-05 18:10 | 51.31177 | -1.13652 | 10451 ft | 326 kts | 90° |
| 2026-05-05 18:11 | 51.31155 | -1.10010 | 10162 ft | 327 kts | 89° |
| 2026-05-05 18:11 | 51.31150 | -1.06387 | 9870 ft | 324 kts | 89° |
| 2026-05-05 18:11 | 51.31143 | -1.02852 | 9570 ft | 319 kts | 89° |
| 2026-05-05 18:11 | 51.31136 | -0.99327 | 9286 ft | 313 kts | 89° |
| 2026-05-05 18:12 | 51.31129 | -0.95871 | 9009 ft | 308 kts | 89° |
| 2026-05-05 18:12 | 51.31121 | -0.92472 | 8740 ft | 302 kts | 89° |
| 2026-05-05 18:12 | 51.31113 | -0.89142 | 8477 ft | 298 kts | 89° |
| 2026-05-05 18:12 | 51.31105 | -0.85995 | 8231 ft | 293 kts | 89° |
| 2026-05-05 18:13 | 51.31095 | -0.82806 | 8025 ft | 286 kts | 89° |
| 2026-05-05 18:13 | 51.31085 | -0.79633 | 7971 ft | 281 kts | 89° |
| 2026-05-05 18:13 | 51.31072 | -0.76546 | 7939 ft | 280 kts | 89° |
| 2026-05-05 18:13 | 51.31059 | -0.73443 | 7939 ft | 280 kts | 89° |
| 2026-05-05 18:14 | 51.31045 | -0.70322 | 7945 ft | 281 kts | 89° |
| 2026-05-05 18:14 | 51.31032 | -0.67219 | 7941 ft | 282 kts | 89° |
| 2026-05-05 18:14 | 51.31018 | -0.64083 | 7947 ft | 282 kts | 89° |
| 2026-05-05 18:14 | 51.31004 | -0.60940 | 7938 ft | 282 kts | 89° |
| 2026-05-05 18:15 | 51.30911 | -0.57797 | 7949 ft | 283 kts | 93° |
| 2026-05-05 18:15 | 51.30742 | -0.54658 | 7940 ft | 283 kts | 93° |
| 2026-05-05 18:15 | 51.30626 | -0.51558 | 7932 ft | 279 kts | 86° |
| 2026-05-05 18:15 | 51.30925 | -0.48568 | 7922 ft | 263 kts | 70° |
| 2026-05-05 18:16 | 51.31689 | -0.46013 | 7893 ft | 249 kts | 53° |
| 2026-05-05 18:16 | 51.32885 | -0.44133 | 7621 ft | 242 kts | 27° |
| 2026-05-05 18:16 | 51.34478 | -0.43496 | 7374 ft | 236 kts | 356° |
| 2026-05-05 18:16 | 51.36014 | -0.44286 | 7118 ft | 234 kts | 325° |
| 2026-05-05 18:17 | 51.37022 | -0.46257 | 7019 ft | 230 kts | 292° |
| 2026-05-05 18:17 | 51.37440 | -0.48775 | 6950 ft | 238 kts | 282° |
| 2026-05-05 18:17 | 51.37729 | -0.51374 | 6951 ft | 242 kts | 282° |
| 2026-05-05 18:17 | 51.38024 | -0.54029 | 6940 ft | 241 kts | 282° |
| 2026-05-05 18:18 | 51.38315 | -0.56671 | 6933 ft | 240 kts | 282° |
| 2026-05-05 18:18 | 51.38602 | -0.59305 | 6935 ft | 238 kts | 282° |
| 2026-05-05 18:18 | 51.38887 | -0.61917 | 6931 ft | 237 kts | 282° |
| 2026-05-05 18:18 | 51.39167 | -0.64501 | 6915 ft | 241 kts | 282° |
| 2026-05-05 18:19 | 51.39459 | -0.67180 | 6694 ft | 246 kts | 282° |
| 2026-05-05 18:19 | 51.39753 | -0.69898 | 6368 ft | 248 kts | 282° |
| 2026-05-05 18:19 | 51.40052 | -0.72651 | 5978 ft | 251 kts | 282° |
| 2026-05-05 18:19 | 51.40346 | -0.75379 | 5599 ft | 250 kts | 282° |
| 2026-05-05 18:20 | 51.40636 | -0.78090 | 5203 ft | 241 kts | 282° |
| 2026-05-05 18:20 | 51.40818 | -0.79810 | 5023 ft | 231 kts | 282° |
| 2026-05-05 18:20 | 51.41190 | -0.83068 | 4601 ft | 216 kts | 290° |
| 2026-05-05 18:20 | 51.41987 | -0.84937 | 4270 ft | 197 kts | 327° |
| 2026-05-05 18:21 | 51.43205 | -0.85554 | 4063 ft | 181 kts | 6° |
| 2026-05-05 18:21 | 51.44356 | -0.84760 | 4026 ft | 186 kts | 44° |
| 2026-05-05 18:21 | 51.45087 | -0.83054 | 4016 ft | 186 kts | 58° |
| 2026-05-05 18:21 | 51.45769 | -0.81297 | 3995 ft | 185 kts | 55° |
| 2026-05-05 18:22 | 51.46471 | -0.79558 | 3902 ft | 186 kts | 55° |
| 2026-05-05 18:22 | 51.47152 | -0.77812 | 3648 ft | 185 kts | 62° |
| 2026-05-05 18:22 | 51.47410 | -0.75858 | 3458 ft | 174 kts | 81° |
| 2026-05-05 18:22 | 51.47553 | -0.73960 | 3221 ft | 167 kts | 81° |
| 2026-05-05 18:23 | 51.47632 | -0.72133 | 3004 ft | 162 kts | 84° |
| 2026-05-05 18:23 | 51.47661 | -0.70341 | 2801 ft | 162 kts | 86° |
| 2026-05-05 18:23 | 51.47675 | -0.68531 | 2591 ft | 161 kts | 86° |
| 2026-05-05 18:23 | 51.47683 | -0.66717 | 2381 ft | 163 kts | 86° |
| 2026-05-05 18:24 | 51.47690 | -0.64906 | 2143 ft | 163 kts | 86° |
| 2026-05-05 18:24 | 51.47695 | -0.63675 | 2003 ft | 162 kts | 87° |
| 2026-05-05 18:24 | 51.47700 | -0.61873 | 1769 ft | 158 kts | 87° |
| 2026-05-05 18:24 | 51.47705 | -0.60198 | 1542 ft | 146 kts | 86° |
| 2026-05-05 18:25 | 51.47711 | -0.58586 | 1394 ft | 143 kts | 86° |
| 2026-05-05 18:25 | 51.47717 | -0.57510 | 1263 ft | 143 kts | 87° |
| 2026-05-05 18:25 | 51.47715 | -0.55400 | 946 ft | 143 kts | 88° |
| 2026-05-05 18:25 | 51.47712 | -0.53805 | 684 ft | 141 kts | 87° |
| 2026-05-05 18:26 | 51.47729 | -0.52227 | 570 ft | 143 kts | 85° |
| 2026-05-05 18:26 | 51.47739 | -0.50618 | 398 ft | 145 kts | 87° |
| 2026-05-05 18:26 | 51.47747 | -0.49012 | 194 ft | 144 kts | 86° |
| 2026-05-05 18:26 | 51.47753 | -0.47622 | 91 ft | 138 kts | 86° |
| 2026-05-05 18:27 | 51.47759 | -0.46408 | 96 ft | 97 kts | 89° |
| 2026-05-05 18:27 | 51.47762 | -0.45614 | 94 ft | 46 kts | 89° |
| 2026-05-05 18:27 | 51.47653 | -0.45472 | 94 ft | 13 kts | 179° |
| 2026-05-05 18:27 | 51.47624 | -0.45471 | 91 ft | 0 kts | 179° |
| 2026-05-05 18:29 | 51.47615 | -0.45474 | 95 ft | 7 kts | 192° |
| 2026-05-05 18:29 | 51.47593 | -0.45590 | 94 ft | 12 kts | 270° |
| 2026-05-05 18:29 | 51.47592 | -0.45726 | 92 ft | 13 kts | 270° |
| 2026-05-05 18:29 | 51.47592 | -0.45867 | 92 ft | 13 kts | 270° |
| 2026-05-05 18:30 | 51.47592 | -0.46009 | 92 ft | 13 kts | 270° |
| 2026-05-05 18:30 | 51.47592 | -0.46147 | 92 ft | 13 kts | 270° |
| 2026-05-05 18:30 | 51.47592 | -0.46288 | 93 ft | 13 kts | 270° |
| 2026-05-05 18:30 | 51.47592 | -0.46449 | 92 ft | 17 kts | 270° |
| 2026-05-05 18:31 | 51.47591 | -0.46655 | 92 ft | 19 kts | 270° |
| 2026-05-05 18:31 | 51.47584 | -0.46861 | 95 ft | 19 kts | 264° |
| 2026-05-05 18:31 | 51.47581 | -0.47072 | 95 ft | 19 kts | 270° |
| 2026-05-05 18:31 | 51.47580 | -0.47263 | 95 ft | 14 kts | 269° |
| 2026-05-05 18:32 | 51.47515 | -0.47355 | 94 ft | 14 kts | 186° |
| 2026-05-05 18:32 | 51.47417 | -0.47357 | 92 ft | 14 kts | 180° |
| 2026-05-05 18:32 | 51.47318 | -0.47356 | 92 ft | 14 kts | 180° |
| 2026-05-05 18:32 | 51.47220 | -0.47355 | 92 ft | 14 kts | 179° |
| 2026-05-05 18:33 | 51.47120 | -0.47354 | 95 ft | 15 kts | 179° |
| 2026-05-05 18:33 | 51.47029 | -0.47353 | 95 ft | 12 kts | 179° |
| 2026-05-05 18:33 | 51.46988 | -0.47390 | 95 ft | 6 kts | 248° |
| 2026-05-05 18:33 | 51.46981 | -0.47463 | 94 ft | 6 kts | 267° |
| 2026-05-05 18:34 | 51.46981 | -0.47490 | 95 ft | 0 kts | 268° |